Observation data for Coyanosa on 02/21/2019      Previous  Date  Next       Current Mesonet Observations  Soil Data  Daily Summary Page  Observations in Plain Language
KCO1 210600Z 12007KT 09/M05 A2985 RMK A01 T00861047  RH  039%=      5-min Rain = 0
KCO1 210601Z 12006KT 09/M05 A2985 RMK A01 T00851048  RH  039%=      5-min Rain = 0
KCO1 210602Z 12006KT 09/M05 A2985 RMK A01 T00851048  RH  039%=      5-min Rain = 0
KCO1 210603Z 12007KT 08/M05 A2985 RMK A01 T00841048  RH  039%=      5-min Rain = 0
KCO1 210604Z 12007KT 08/M05 A2985 RMK A01 T00841048  RH  039%=      5-min Rain = 0
KCO1 210605Z 12007KT 08/M05 A2985 RMK A01 T00841047  RH  039%=      5-min Rain = 0
KCO1 210606Z 12006KT 08/M05 A2985 RMK A01 T00841047  RH  039%=      5-min Rain = 0
KCO1 210607Z 12006KT 08/M05 A2985 RMK A01 T00841048  RH  039%=      5-min Rain = 0
KCO1 210608Z 13006KT 08/M05 A2985 RMK A01 T00841047  RH  039%=      5-min Rain = 0
KCO1 210609Z 13006KT 08/M05 A2984 RMK A01 T00841047  RH  039%=      5-min Rain = 0
KCO1 210610Z 13006KT 08/M05 A2984 RMK A01 T00841047  RH  039%=      5-min Rain = 0
KCO1 210611Z 13006KT 08/M05 A2984 RMK A01 T00831047  RH  039%=      5-min Rain = 0
KCO1 210612Z 13007KT 08/M05 A2984 RMK A01 T00831047  RH  039%=      5-min Rain = 0
KCO1 210613Z 13007KT 08/M05 A2984 RMK A01 T00841046  RH  040%=      5-min Rain = 0
KCO1 210614Z 13007KT 08/M05 A2984 RMK A01 T00841045  RH  040%=      5-min Rain = 0
KCO1 210615Z 13007KT 09/M04 A2984 RMK A01 T00851044  RH  040%=      5-min Rain = 0
KCO1 210616Z 13006KT 09/M04 A2984 RMK A01 T00851043  RH  040%=      5-min Rain = 0
KCO1 210617Z 13007KT 09/M04 A2984 RMK A01 T00851043  RH  040%=      5-min Rain = 0
KCO1 210618Z 13007KT 09/M04 A2984 RMK A01 T00851041  RH  041%=      5-min Rain = 0
KCO1 210619Z 13008KT 09/M04 A2984 RMK A01 T00851040  RH  041%=      5-min Rain = 0
KCO1 210620Z 14008KT 09/M04 A2984 RMK A01 T00861039  RH  041%=      5-min Rain = 0
KCO1 210621Z 14008KT 09/M04 A2984 RMK A01 T00871037  RH  041%=      5-min Rain = 0
KCO1 210622Z 13007KT 09/M04 A2984 RMK A01 T00871036  RH  042%=      5-min Rain = 0
KCO1 210623Z 14008KT 09/M04 A2984 RMK A01 T00871036  RH  042%=      5-min Rain = 0
KCO1 210624Z 14007KT 09/M03 A2984 RMK A01 T00871034  RH  042%=      5-min Rain = 0
KCO1 210625Z 14008KT 09/M03 A2984 RMK A01 T00881032  RH  043%=      5-min Rain = 0
KCO1 210626Z 14008KT 09/M03 A2984 RMK A01 T00881031  RH  043%=      5-min Rain = 0
KCO1 210627Z 13007KT 09/M03 A2984 RMK A01 T00891030  RH  043%=      5-min Rain = 0
KCO1 210628Z 13007KT 09/M03 A2984 RMK A01 T00891029  RH  043%=      5-min Rain = 0
KCO1 210629Z 14007KT 09/M03 A2984 RMK A01 T00901027  RH  044%=      5-min Rain = 0
KCO1 210630Z 14008KT 09/M03 A2984 RMK A01 T00901025  RH  044%=      5-min Rain = 0
KCO1 210631Z 13007KT 09/M02 A2984 RMK A01 T00911024  RH  044%=      5-min Rain = 0
KCO1 210632Z 14008KT 09/M02 A2984 RMK A01 T00921022  RH  045%=      5-min Rain = 0
KCO1 210633Z 14009KT 09/M02 A2984 RMK A01 T00931019  RH  045%=      5-min Rain = 0
KCO1 210634Z 14010KT 10/M02 A2984 RMK A01 T00951016  RH  046%=      5-min Rain = 0
KCO1 210635Z 14011KT 10/M01 A2984 RMK A01 T00981014  RH  046%=      5-min Rain = 0
KCO1 210636Z 14011KT 10/M01 A2984 RMK A01 T01001013  RH  045%=      5-min Rain = 0
KCO1 210637Z 13011KT 10/M01 A2984 RMK A01 T01021013  RH  045%=      5-min Rain = 0
KCO1 210638Z 14012KT 10/M01 A2984 RMK A01 T01031013  RH  044%=      5-min Rain = 0
KCO1 210639Z 14013KT 10/M01 A2984 RMK A01 T01041013  RH  044%=      5-min Rain = 0
KCO1 210640Z 14012KT 10/M01 A2984 RMK A01 T01041013  RH  044%=      5-min Rain = 0
KCO1 210641Z 14012KT 11/M01 A2984 RMK A01 T01051014  RH  044%=      5-min Rain = 0
KCO1 210642Z 14015KT 11/M01 A2984 RMK A01 T01051014  RH  043%=      5-min Rain = 0
KCO1 210643Z 14012KT 11/M01 A2983 RMK A01 T01051014  RH  043%=      5-min Rain = 0
KCO1 210644Z 14013KT 11/M02 A2983 RMK A01 T01051015  RH  043%=      5-min Rain = 0
KCO1 210645Z 15011KT 11/M02 A2983 RMK A01 T01061015  RH  043%=      5-min Rain = 0
KCO1 210646Z 14015KT 11/M02 A2983 RMK A01 T01051016  RH  043%=      5-min Rain = 0
KCO1 210647Z 14013KT 11/M02 A2983 RMK A01 T01061016  RH  043%=      5-min Rain = 0
KCO1 210648Z 14014KT 11/M02 A2983 RMK A01 T01061016  RH  042%=      5-min Rain = 0
KCO1 210649Z 14016KT 11/M02 A2983 RMK A01 T01061017  RH  042%=      5-min Rain = 0
KCO1 210650Z 14016KT 11/M02 A2983 RMK A01 T01061017  RH  042%=      5-min Rain = 0
KCO1 210651Z 14015KT 11/M02 A2983 RMK A01 T01071018  RH  042%=      5-min Rain = 0
KCO1 210652Z 14015KT 11/M02 A2983 RMK A01 T01071018  RH  042%=      5-min Rain = 0
KCO1 210653Z 13013KT 11/M02 A2983 RMK A01 T01071018  RH  042%=      5-min Rain = 0
KCO1 210654Z 14013KT 11/M02 A2983 RMK A01 T01071019  RH  042%=      5-min Rain = 0
KCO1 210655Z 13014KT 11/M02 A2983 RMK A01 T01061019  RH  042%=      5-min Rain = 0
KCO1 210656Z 14016KT 11/M02 A2983 RMK A01 T01061019  RH  042%=      5-min Rain = 0
KCO1 210657Z 14014KT 11/M02 A2983 RMK A01 T01061020  RH  041%=      5-min Rain = 0
KCO1 210658Z 13012KT 11/M02 A2984 RMK A01 T01061020  RH  041%=      5-min Rain = 0
KCO1 210659Z 14014KT 11/M02 A2984 RMK A01 T01061020  RH  041%=      5-min Rain = 0
KCO1 210700Z 13016KT 11/M02 A2983 RMK A01 T01061021  RH  041%=      5-min Rain = 0
KCO1 210701Z 13014KT 11/M02 A2983 RMK A01 T01061021  RH  041%=      5-min Rain = 0
KCO1 210702Z 14014KT 11/M02 A2983 RMK A01 T01061022  RH  041%=      5-min Rain = 0
KCO1 210703Z 14015KT 11/M02 A2983 RMK A01 T01061021  RH  041%=      5-min Rain = 0
KCO1 210704Z 13013KT 11/M02 A2983 RMK A01 T01051022  RH  041%=      5-min Rain = 0
KCO1 210705Z 13012KT 11/M02 A2983 RMK A01 T01051022  RH  041%=      5-min Rain = 0
KCO1 210706Z 13011KT 11/M02 A2983 RMK A01 T01051022  RH  041%=      5-min Rain = 0
KCO1 210707Z 13012KT 11/M02 A2983 RMK A01 T01051022  RH  041%=      5-min Rain = 0
KCO1 210708Z 13014KT 10/M02 A2984 RMK A01 T01041022  RH  041%=      5-min Rain = 0
KCO1 210709Z 13013KT 10/M02 A2983 RMK A01 T01041023  RH  041%=      5-min Rain = 0
KCO1 210710Z 13012G17KT 10/M02 A2983 RMK A01 T01041022  RH  041%=      5-min Rain = 0
KCO1 210711Z 13013KT 10/M02 A2983 RMK A01 T01041023  RH  041%=      5-min Rain = 0
KCO1 210712Z 13012KT 10/M02 A2983 RMK A01 T01041023  RH  041%=      5-min Rain = 0
KCO1 210713Z 13013KT 10/M02 A2983 RMK A01 T01041023  RH  041%=      5-min Rain = 0
KCO1 210714Z 13011KT 10/M02 A2983 RMK A01 T01041023  RH  041%=      5-min Rain = 0
KCO1 210715Z 13012KT 10/M02 A2983 RMK A01 T01031023  RH  041%=      5-min Rain = 0
KCO1 210716Z 13012KT 10/M02 A2983 RMK A01 T01031023  RH  041%=      5-min Rain = 0
KCO1 210717Z 13011KT 10/M02 A2983 RMK A01 T01031023  RH  041%=      5-min Rain = 0
KCO1 210718Z 13013KT 10/M02 A2983 RMK A01 T01031023  RH  041%=      5-min Rain = 0
KCO1 210719Z 13011KT 10/M02 A2983 RMK A01 T01031023  RH  041%=      5-min Rain = 0
KCO1 210720Z 13011KT 10/M02 A2983 RMK A01 T01021023  RH  041%=      5-min Rain = 0
KCO1 210721Z 13011KT 10/M02 A2983 RMK A01 T01021023  RH  042%=      5-min Rain = 0
KCO1 210722Z 13011KT 10/M02 A2983 RMK A01 T01021023  RH  042%=      5-min Rain = 0
KCO1 210723Z 13010KT 10/M02 A2983 RMK A01 T01021023  RH  042%=      5-min Rain = 0
KCO1 210724Z 13011KT 10/M02 A2983 RMK A01 T01011023  RH  042%=      5-min Rain = 0
KCO1 210725Z 14010KT 10/M02 A2983 RMK A01 T01011023  RH  042%=      5-min Rain = 0
KCO1 210726Z 14012KT 10/M02 A2983 RMK A01 T01001023  RH  042%=      5-min Rain = 0
KCO1 210727Z 14010KT 10/M02 A2983 RMK A01 T01011023  RH  042%=      5-min Rain = 0
KCO1 210728Z 14012KT 10/M02 A2983 RMK A01 T01001023  RH  042%=      5-min Rain = 0
KCO1 210729Z 14011KT 10/M02 A2983 RMK A01 T01011023  RH  042%=      5-min Rain = 0
KCO1 210730Z 14010KT 10/M02 A2983 RMK A01 T01001023  RH  042%=      5-min Rain = 0
KCO1 210731Z 14011KT 10/M02 A2983 RMK A01 T01011023  RH  042%=      5-min Rain = 0
KCO1 210732Z 14011KT 10/M02 A2983 RMK A01 T01001023  RH  042%=      5-min Rain = 0
KCO1 210733Z 14012KT 10/M02 A2983 RMK A01 T01001023  RH  042%=      5-min Rain = 0
KCO1 210734Z 14013KT 10/M02 A2983 RMK A01 T01001023  RH  042%=      5-min Rain = 0
KCO1 210735Z 14013KT 10/M02 A2983 RMK A01 T01001023  RH  042%=      5-min Rain = 0
KCO1 210736Z 14014KT 10/M02 A2983 RMK A01 T01001023  RH  042%=      5-min Rain = 0
KCO1 210737Z 13013KT 10/M02 A2982 RMK A01 T01011023  RH  042%=      5-min Rain = 0
KCO1 210738Z 14012KT 10/M02 A2982 RMK A01 T01001023  RH  042%=      5-min Rain = 0
KCO1 210739Z 14012KT 10/M02 A2982 RMK A01 T01011023  RH  042%=      5-min Rain = 0
KCO1 210740Z 14012KT 10/M02 A2982 RMK A01 T01001023  RH  042%=      5-min Rain = 0
KCO1 210741Z 14011KT 10/M02 A2982 RMK A01 T01001023  RH  042%=      5-min Rain = 0
KCO1 210742Z 14012KT 10/M02 A2982 RMK A01 T01001023  RH  042%=      5-min Rain = 0
KCO1 210743Z 14013KT 10/M02 A2982 RMK A01 T00991023  RH  042%=      5-min Rain = 0
KCO1 210744Z 14012KT 10/M02 A2982 RMK A01 T00991023  RH  042%=      5-min Rain = 0
KCO1 210745Z 14013KT 10/M02 A2982 RMK A01 T00991023  RH  042%=      5-min Rain = 0
KCO1 210746Z 14012KT 10/M02 A2982 RMK A01 T00991023  RH  042%=      5-min Rain = 0
KCO1 210747Z 14011KT 10/M02 A2982 RMK A01 T00991023  RH  042%=      5-min Rain = 0
KCO1 210748Z 14011KT 10/M02 A2982 RMK A01 T00991023  RH  042%=      5-min Rain = 0
KCO1 210749Z 14011KT 10/M02 A2982 RMK A01 T00991023  RH  042%=      5-min Rain = 0
KCO1 210750Z 14012KT 10/M02 A2982 RMK A01 T00981023  RH  042%=      5-min Rain = 0
KCO1 210751Z 14012KT 10/M02 A2982 RMK A01 T00981023  RH  042%=      5-min Rain = 0
KCO1 210752Z 14011KT 10/M02 A2982 RMK A01 T00981023  RH  042%=      5-min Rain = 0
KCO1 210753Z 14011KT 10/M02 A2983 RMK A01 T00981023  RH  043%=      5-min Rain = 0
KCO1 210754Z 14012KT 10/M02 A2983 RMK A01 T00981023  RH  043%=      5-min Rain = 0
KCO1 210755Z 14012KT 10/M02 A2983 RMK A01 T00981023  RH  043%=      5-min Rain = 0
KCO1 210756Z 14011KT 10/M02 A2983 RMK A01 T00981023  RH  043%=      5-min Rain = 0
KCO1 210757Z 14011KT 10/M02 A2982 RMK A01 T00981023  RH  043%=      5-min Rain = 0
KCO1 210758Z 14010KT 10/M02 A2983 RMK A01 T00981023  RH  043%=      5-min Rain = 0
KCO1 210759Z 14010KT 10/M02 A2983 RMK A01 T00971023  RH  043%=      5-min Rain = 0
KCO1 210800Z 14010KT 10/M02 A2983 RMK A01 T00971023  RH  043%=      5-min Rain = 0
KCO1 210801Z 13011KT 10/M02 A2982 RMK A01 T00961023  RH  043%=      5-min Rain = 0
KCO1 210802Z 14010KT 10/M02 A2982 RMK A01 T00961023  RH  043%=      5-min Rain = 0
KCO1 210803Z 13010KT 10/M02 A2982 RMK A01 T00961023  RH  043%=      5-min Rain = 0
KCO1 210804Z 14009KT 10/M02 A2982 RMK A01 T00961023  RH  043%=      5-min Rain = 0
KCO1 210805Z 13008KT 10/M02 A2982 RMK A01 T00951023  RH  043%=      5-min Rain = 0
KCO1 210806Z 14009KT 10/M02 A2982 RMK A01 T00951023  RH  043%=      5-min Rain = 0
KCO1 210807Z 13009KT 10/M02 A2982 RMK A01 T00951023  RH  044%=      5-min Rain = 0
KCO1 210808Z 13010KT 10/M02 A2982 RMK A01 T00951023  RH  044%=      5-min Rain = 0
KCO1 210809Z 14011KT 10/M02 A2982 RMK A01 T00951023  RH  044%=      5-min Rain = 0
KCO1 210810Z 14009KT 09/M02 A2982 RMK A01 T00941023  RH  044%=      5-min Rain = 0
KCO1 210811Z 13009KT 10/M02 A2982 RMK A01 T00951023  RH  044%=      5-min Rain = 0
KCO1 210812Z 14009KT 09/M02 A2982 RMK A01 T00941023  RH  044%=      5-min Rain = 0
KCO1 210813Z 14010KT 09/M02 A2982 RMK A01 T00941023  RH  044%=      5-min Rain = 0
KCO1 210814Z 13009KT 09/M02 A2982 RMK A01 T00941023  RH  044%=      5-min Rain = 0
KCO1 210815Z 13011KT 09/M02 A2983 RMK A01 T00941024  RH  044%=      5-min Rain = 0
KCO1 210816Z 13010KT 09/M02 A2983 RMK A01 T00941024  RH  044%=      5-min Rain = 0
KCO1 210817Z 14010KT 09/M02 A2983 RMK A01 T00941023  RH  044%=      5-min Rain = 0
KCO1 210818Z 14009KT 09/M02 A2983 RMK A01 T00941023  RH  044%=      5-min Rain = 0
KCO1 210819Z 14011KT 09/M02 A2983 RMK A01 T00931023  RH  044%=      5-min Rain = 0
KCO1 210820Z 14010KT 09/M02 A2983 RMK A01 T00931023  RH  044%=      5-min Rain = 0
KCO1 210821Z 14010KT 09/M02 A2982 RMK A01 T00931023  RH  044%=      5-min Rain = 0
KCO1 210822Z 14010KT 09/M02 A2982 RMK A01 T00931023  RH  044%=      5-min Rain = 0
KCO1 210823Z 14010KT 09/M02 A2982 RMK A01 T00931023  RH  044%=      5-min Rain = 0
KCO1 210824Z 14010KT 09/M02 A2982 RMK A01 T00931023  RH  044%=      5-min Rain = 0
KCO1 210825Z 13009KT 09/M02 A2982 RMK A01 T00931023  RH  044%=      5-min Rain = 0
KCO1 210826Z 13008KT 09/M02 A2982 RMK A01 T00931023  RH  044%=      5-min Rain = 0
KCO1 210827Z 13009KT 09/M02 A2982 RMK A01 T00931023  RH  044%=      5-min Rain = 0
KCO1 210828Z 13009KT 09/M02 A2982 RMK A01 T00931023  RH  044%=      5-min Rain = 0
KCO1 210829Z 13008KT 09/M02 A2982 RMK A01 T00931023  RH  044%=      5-min Rain = 0
KCO1 210830Z 13008KT 09/M02 A2982 RMK A01 T00921023  RH  044%=      5-min Rain = 0
KCO1 210831Z 13008KT 09/M02 A2982 RMK A01 T00921023  RH  044%=      5-min Rain = 0
KCO1 210832Z 13008KT 09/M02 A2982 RMK A01 T00921023  RH  044%=      5-min Rain = 0
KCO1 210833Z 13009KT 09/M02 A2982 RMK A01 T00911023  RH  045%=      5-min Rain = 0
KCO1 210834Z 14007KT 09/M02 A2982 RMK A01 T00911024  RH  045%=      5-min Rain = 0
KCO1 210835Z 14008KT 09/M02 A2982 RMK A01 T00911024  RH  045%=      5-min Rain = 0
KCO1 210836Z 13008KT 09/M02 A2982 RMK A01 T00911023  RH  045%=      5-min Rain = 0
KCO1 210837Z 13008KT 09/M02 A2982 RMK A01 T00901024  RH  045%=      5-min Rain = 0
KCO1 210838Z 14008KT 09/M02 A2982 RMK A01 T00901023  RH  045%=      5-min Rain = 0
KCO1 210839Z 13007KT 09/M02 A2982 RMK A01 T00901024  RH  045%=      5-min Rain = 0
KCO1 210840Z 13007KT 09/M02 A2982 RMK A01 T00901024  RH  045%=      5-min Rain = 0
KCO1 210841Z 13007KT 09/M02 A2982 RMK A01 T00891023  RH  045%=      5-min Rain = 0
KCO1 210842Z 13006KT 09/M02 A2982 RMK A01 T00891023  RH  045%=      5-min Rain = 0
KCO1 210843Z 13007KT 09/M02 A2982 RMK A01 T00891024  RH  045%=      5-min Rain = 0
KCO1 210844Z 13007KT 09/M02 A2982 RMK A01 T00891023  RH  045%=      5-min Rain = 0
KCO1 210845Z 13007KT 09/M02 A2982 RMK A01 T00891023  RH  045%=      5-min Rain = 0
KCO1 210846Z 13006KT 09/M02 A2982 RMK A01 T00891024  RH  045%=      5-min Rain = 0
KCO1 210847Z 13006KT 09/M02 A2982 RMK A01 T00881023  RH  045%=      5-min Rain = 0
KCO1 210848Z 13007KT 09/M02 A2982 RMK A01 T00881023  RH  046%=      5-min Rain = 0
KCO1 210849Z 12007KT 09/M02 A2982 RMK A01 T00871024  RH  046%=      5-min Rain = 0
KCO1 210850Z 13007KT 09/M02 A2982 RMK A01 T00871024  RH  046%=      5-min Rain = 0
KCO1 210851Z 13006KT 09/M02 A2982 RMK A01 T00871023  RH  046%=      5-min Rain = 0
KCO1 210852Z 13006KT 09/M02 A2982 RMK A01 T00871023  RH  046%=      5-min Rain = 0
KCO1 210853Z 12007KT 09/M02 A2982 RMK A01 T00871023  RH  046%=      5-min Rain = 0
KCO1 210854Z 12008KT 09/M02 A2982 RMK A01 T00861024  RH  046%=      5-min Rain = 0
KCO1 210855Z 12007KT 09/M02 A2981 RMK A01 T00861023  RH  046%=      5-min Rain = 0
KCO1 210856Z 12008KT 09/M02 A2982 RMK A01 T00861024  RH  046%=      5-min Rain = 0
KCO1 210857Z 12008KT 09/M02 A2982 RMK A01 T00861024  RH  046%=      5-min Rain = 0
KCO1 210858Z 12008KT 09/M02 A2982 RMK A01 T00861024  RH  046%=      5-min Rain = 0
KCO1 210859Z 12008KT 09/M02 A2982 RMK A01 T00861024  RH  046%=      5-min Rain = 0
KCO1 210900Z 12008KT 09/M02 A2982 RMK A01 T00861024  RH  046%=      5-min Rain = 0
KCO1 210901Z 12007KT 09/M02 A2982 RMK A01 T00861024  RH  046%=      5-min Rain = 0
KCO1 210902Z 11006KT 09/M02 A2982 RMK A01 T00861024  RH  046%=      5-min Rain = 0
KCO1 210903Z 11007KT 09/M02 A2982 RMK A01 T00861024  RH  046%=      5-min Rain = 0
KCO1 210904Z 10007KT 09/M03 A2982 RMK A01 T00851025  RH  046%=      5-min Rain = 0
KCO1 210905Z 10006KT 09/M02 A2982 RMK A01 T00851024  RH  046%=      5-min Rain = 0
KCO1 210906Z 10006KT 09/M02 A2982 RMK A01 T00851024  RH  046%=      5-min Rain = 0
KCO1 210907Z 10005KT 08/M02 A2982 RMK A01 T00841024  RH  046%=      5-min Rain = 0
KCO1 210908Z 09006KT 08/M02 A2982 RMK A01 T00841024  RH  047%=      5-min Rain = 0
KCO1 210909Z 09007KT 08/M02 A2982 RMK A01 T00831024  RH  047%=      5-min Rain = 0
KCO1 210910Z 09006KT 08/M02 A2982 RMK A01 T00831024  RH  047%=      5-min Rain = 0
KCO1 210911Z 09006KT 08/M02 A2982 RMK A01 T00831024  RH  047%=      5-min Rain = 0
KCO1 210912Z 09006KT 08/M02 A2982 RMK A01 T00821024  RH  047%=      5-min Rain = 0
KCO1 210913Z 09006KT 08/M02 A2982 RMK A01 T00821024  RH  047%=      5-min Rain = 0
KCO1 210914Z 09006KT 08/M02 A2981 RMK A01 T00811024  RH  047%=      5-min Rain = 0
KCO1 210915Z 08006KT 08/M02 A2981 RMK A01 T00811024  RH  048%=      5-min Rain = 0
KCO1 210916Z 08006KT 08/M02 A2981 RMK A01 T00801024  RH  048%=      5-min Rain = 0
KCO1 210917Z 08006KT 08/M02 A2981 RMK A01 T00801024  RH  048%=      5-min Rain = 0
KCO1 210918Z 08007KT 08/M02 A2981 RMK A01 T00801024  RH  048%=      5-min Rain = 0
KCO1 210919Z 09006KT 08/M02 A2981 RMK A01 T00801024  RH  048%=      5-min Rain = 0
KCO1 210920Z 09006KT 08/M02 A2981 RMK A01 T00801024  RH  048%=      5-min Rain = 0
KCO1 210921Z 09006KT 08/M02 A2982 RMK A01 T00801023  RH  048%=      5-min Rain = 0
KCO1 210922Z 09006KT 08/M02 A2982 RMK A01 T00801023  RH  048%=      5-min Rain = 0
KCO1 210923Z 09007KT 08/M02 A2982 RMK A01 T00801023  RH  048%=      5-min Rain = 0
KCO1 210924Z 09007KT 08/M02 A2982 RMK A01 T00791024  RH  048%=      5-min Rain = 0
KCO1 210925Z 09007KT 08/M02 A2982 RMK A01 T00791024  RH  048%=      5-min Rain = 0
KCO1 210926Z 09007KT 08/M02 A2982 RMK A01 T00791024  RH  048%=      5-min Rain = 0
KCO1 210927Z 10007KT 08/M03 A2982 RMK A01 T00791025  RH  048%=      5-min Rain = 0
KCO1 210928Z 10008KT 08/M03 A2982 RMK A01 T00791025  RH  048%=      5-min Rain = 0
KCO1 210929Z 10008KT 08/M03 A2982 RMK A01 T00791025  RH  048%=      5-min Rain = 0
KCO1 210930Z 10008KT 08/M03 A2981 RMK A01 T00791025  RH  048%=      5-min Rain = 0
KCO1 210931Z 10008KT 08/M03 A2981 RMK A01 T00791025  RH  048%=      5-min Rain = 0
KCO1 210932Z 10009KT 08/M03 A2981 RMK A01 T00791025  RH  048%=      5-min Rain = 0
KCO1 210933Z 10008KT 08/M03 A2981 RMK A01 T00791026  RH  048%=      5-min Rain = 0
KCO1 210934Z 10008KT 08/M03 A2981 RMK A01 T00791025  RH  048%=      5-min Rain = 0
KCO1 210935Z 10008KT 08/M03 A2981 RMK A01 T00791025  RH  048%=      5-min Rain = 0
KCO1 210936Z 10008KT 08/M03 A2981 RMK A01 T00801025  RH  048%=      5-min Rain = 0
KCO1 210937Z 10008KT 08/M03 A2981 RMK A01 T00791026  RH  047%=      5-min Rain = 0
KCO1 210938Z 10008KT 08/M03 A2981 RMK A01 T00801025  RH  047%=      5-min Rain = 0
KCO1 210939Z 10008KT 08/M03 A2981 RMK A01 T00801025  RH  047%=      5-min Rain = 0
KCO1 210940Z 10008KT 08/M03 A2981 RMK A01 T00801025  RH  047%=      5-min Rain = 0
KCO1 210941Z 10008KT 08/M03 A2981 RMK A01 T00801025  RH  047%=      5-min Rain = 0
KCO1 210942Z 10008KT 08/M03 A2981 RMK A01 T00801025  RH  047%=      5-min Rain = 0
KCO1 210943Z 09008KT 08/M03 A2981 RMK A01 T00801025  RH  047%=      5-min Rain = 0
KCO1 210944Z 09008KT 08/M03 A298 RMK A01 T00801025  RH  047%=      5-min Rain = 0
KCO1 210945Z 09008KT 08/M03 A298 RMK A01 T00801025  RH  048%=      5-min Rain = 0
KCO1 210946Z 09009KT 08/M03 A298 RMK A01 T00801025  RH  048%=      5-min Rain = 0
KCO1 210947Z 09009KT 08/M02 A298 RMK A01 T00801024  RH  048%=      5-min Rain = 0
KCO1 210948Z 09008KT 08/M02 A298 RMK A01 T00801024  RH  048%=      5-min Rain = 0
KCO1 210949Z 09008KT 08/M03 A298 RMK A01 T00801025  RH  048%=      5-min Rain = 0
KCO1 210950Z 09007KT 08/M03 A298 RMK A01 T00801025  RH  048%=      5-min Rain = 0
KCO1 210951Z 09008KT 08/M03 A298 RMK A01 T00801025  RH  048%=      5-min Rain = 0
KCO1 210952Z 10008KT 08/M03 A298 RMK A01 T00801025  RH  048%=      5-min Rain = 0
KCO1 210953Z 10008KT 08/M03 A298 RMK A01 T00801025  RH  047%=      5-min Rain = 0
KCO1 210954Z 10007KT 08/M03 A298 RMK A01 T00801025  RH  047%=      5-min Rain = 0
KCO1 210955Z 10008KT 08/M03 A298 RMK A01 T00801025  RH  047%=      5-min Rain = 0
KCO1 210956Z 10008KT 08/M03 A298 RMK A01 T00801025  RH  047%=      5-min Rain = 0
KCO1 210957Z 11008KT 08/M03 A298 RMK A01 T00801025  RH  047%=      5-min Rain = 0
KCO1 210958Z 11009KT 08/M03 A298 RMK A01 T00801025  RH  047%=      5-min Rain = 0
KCO1 210959Z 11008KT 08/M03 A298 RMK A01 T00811025  RH  047%=      5-min Rain = 0
KCO1 211000Z 12008KT 08/M03 A298 RMK A01 T00811025  RH  047%=      5-min Rain = 0
KCO1 211001Z 12009KT 08/M03 A298 RMK A01 T00811026  RH  047%=      5-min Rain = 0
KCO1 211002Z 11010KT 08/M03 A298 RMK A01 T00821026  RH  047%=      5-min Rain = 0
KCO1 211003Z 11010KT 08/M03 A298 RMK A01 T00821026  RH  046%=      5-min Rain = 0
KCO1 211004Z 11010KT 08/M03 A298 RMK A01 T00831026  RH  046%=      5-min Rain = 0
KCO1 211005Z 11009KT 08/M03 A298 RMK A01 T00831026  RH  046%=      5-min Rain = 0
KCO1 211006Z 11008KT 08/M03 A298 RMK A01 T00831026  RH  046%=      5-min Rain = 0
KCO1 211007Z 11009KT 08/M03 A298 RMK A01 T00831027  RH  046%=      5-min Rain = 0
KCO1 211008Z 11009KT 08/M03 A298 RMK A01 T00831026  RH  046%=      5-min Rain = 0
KCO1 211009Z 11009KT 08/M03 A2979 RMK A01 T00841026  RH  046%=      5-min Rain = 0
KCO1 211010Z 11008KT 08/M03 A2979 RMK A01 T00841026  RH  046%=      5-min Rain = 0
KCO1 211011Z 11009KT 08/M03 A2979 RMK A01 T00841026  RH  046%=      5-min Rain = 0
KCO1 211012Z 11009KT 08/M03 A2979 RMK A01 T00841026  RH  046%=      5-min Rain = 0
KCO1 211013Z 11008KT 08/M03 A2979 RMK A01 T00841026  RH  046%=      5-min Rain = 0
KCO1 211014Z 11009KT 09/M03 A2979 RMK A01 T00851026  RH  046%=      5-min Rain = 0
KCO1 211015Z 11010KT 09/M03 A2979 RMK A01 T00851027  RH  045%=      5-min Rain = 0
KCO1 211016Z 11009KT 09/M03 A2979 RMK A01 T00851027  RH  045%=      5-min Rain = 0
KCO1 211017Z 11008KT 09/M03 A2979 RMK A01 T00851027  RH  045%=      5-min Rain = 0
KCO1 211018Z 11010KT 08/M03 A2979 RMK A01 T00841027  RH  045%=      5-min Rain = 0
KCO1 211019Z 11009KT 08/M03 A2979 RMK A01 T00841027  RH  045%=      5-min Rain = 0
KCO1 211020Z 11009KT 09/M03 A2979 RMK A01 T00851027  RH  045%=      5-min Rain = 0
KCO1 211021Z 12009KT 09/M03 A2979 RMK A01 T00851027  RH  045%=      5-min Rain = 0
KCO1 211022Z 11010KT 09/M03 A2979 RMK A01 T00851027  RH  045%=      5-min Rain = 0
KCO1 211023Z 11009KT 09/M03 A2979 RMK A01 T00851027  RH  045%=      5-min Rain = 0
KCO1 211024Z 11009KT 09/M03 A2979 RMK A01 T00851027  RH  045%=      5-min Rain = 0
KCO1 211025Z 11008KT 09/M03 A2979 RMK A01 T00851027  RH  045%=      5-min Rain = 0
KCO1 211026Z 11008KT 09/M03 A2979 RMK A01 T00851027  RH  045%=      5-min Rain = 0
KCO1 211027Z 11009KT 08/M03 A2978 RMK A01 T00841027  RH  045%=      5-min Rain = 0
KCO1 211028Z 11011KT 08/M03 A2978 RMK A01 T00841027  RH  045%=      5-min Rain = 0
KCO1 211029Z 11009KT 09/M03 A2978 RMK A01 T00851028  RH  045%=      5-min Rain = 0
KCO1 211030Z 11009KT 09/M03 A2979 RMK A01 T00851027  RH  045%=      5-min Rain = 0
KCO1 211031Z 11009KT 09/M03 A2979 RMK A01 T00851027  RH  045%=      5-min Rain = 0
KCO1 211032Z 11010KT 09/M03 A2979 RMK A01 T00851028  RH  045%=      5-min Rain = 0
KCO1 211033Z 11010KT 09/M03 A2978 RMK A01 T00851028  RH  045%=      5-min Rain = 0
KCO1 211034Z 11009KT 09/M03 A2979 RMK A01 T00851028  RH  045%=      5-min Rain = 0
KCO1 211035Z 12008KT 09/M03 A2979 RMK A01 T00851028  RH  045%=      5-min Rain = 0
KCO1 211036Z 12007KT 09/M03 A2979 RMK A01 T00851028  RH  045%=      5-min Rain = 0
KCO1 211037Z 11008KT 09/M03 A2979 RMK A01 T00851028  RH  045%=      5-min Rain = 0
KCO1 211038Z 12008KT 09/M03 A2979 RMK A01 T00851028  RH  045%=      5-min Rain = 0
KCO1 211039Z 11008KT 09/M03 A2979 RMK A01 T00851028  RH  045%=      5-min Rain = 0
KCO1 211040Z 11009KT 09/M03 A2979 RMK A01 T00851028  RH  045%=      5-min Rain = 0
KCO1 211041Z 11008KT 09/M03 A2979 RMK A01 T00851028  RH  045%=      5-min Rain = 0
KCO1 211042Z 11009KT 09/M03 A2979 RMK A01 T00851028  RH  045%=      5-min Rain = 0
KCO1 211043Z 11008KT 08/M03 A2979 RMK A01 T00841028  RH  045%=      5-min Rain = 0
KCO1 211044Z 11009KT 09/M03 A2978 RMK A01 T00851028  RH  045%=      5-min Rain = 0
KCO1 211045Z 11008KT 09/M03 A2978 RMK A01 T00851028  RH  045%=      5-min Rain = 0
KCO1 211046Z 11009KT 09/M03 A2978 RMK A01 T00851028  RH  045%=      5-min Rain = 0
KCO1 211047Z 11008KT 08/M03 A2978 RMK A01 T00841028  RH  045%=      5-min Rain = 0
KCO1 211048Z 11010KT 08/M03 A2978 RMK A01 T00841028  RH  045%=      5-min Rain = 0
KCO1 211049Z 11009KT 08/M03 A2978 RMK A01 T00841028  RH  045%=      5-min Rain = 0
KCO1 211050Z 11009KT 08/M03 A2978 RMK A01 T00841029  RH  045%=      5-min Rain = 0
KCO1 211051Z 11008KT 08/M03 A2978 RMK A01 T00841028  RH  045%=      5-min Rain = 0
KCO1 211052Z 11008KT 08/M03 A2978 RMK A01 T00841028  RH  045%=      5-min Rain = 0
KCO1 211053Z 11008KT 08/M03 A2978 RMK A01 T00841028  RH  045%=      5-min Rain = 0
KCO1 211054Z 11008KT 08/M03 A2978 RMK A01 T00831028  RH  045%=      5-min Rain = 0
KCO1 211055Z 10008KT 08/M03 A2978 RMK A01 T00831029  RH  045%=      5-min Rain = 0
KCO1 211056Z 11008KT 08/M03 A2978 RMK A01 T00831028  RH  045%=      5-min Rain = 0
KCO1 211057Z 11009KT 08/M03 A2978 RMK A01 T00831028  RH  045%=      5-min Rain = 0
KCO1 211058Z 11008KT 08/M03 A2978 RMK A01 T00831028  RH  045%=      5-min Rain = 0
KCO1 211059Z 11008KT 08/M03 A2978 RMK A01 T00831028  RH  045%=      5-min Rain = 0
KCO1 211100Z 11008KT 08/M03 A2978 RMK A01 T00831028  RH  045%=      5-min Rain = 0
KCO1 211101Z 11007KT 08/M03 A2978 RMK A01 T00831028  RH  045%=      5-min Rain = 0
KCO1 211102Z 12007KT 08/M03 A2978 RMK A01 T00831028  RH  045%=      5-min Rain = 0
KCO1 211103Z 12008KT 08/M03 A2978 RMK A01 T00831029  RH  045%=      5-min Rain = 0
KCO1 211104Z 12008KT 08/M03 A2978 RMK A01 T00821029  RH  045%=      5-min Rain = 0
KCO1 211105Z 12008KT 08/M03 A2978 RMK A01 T00821029  RH  045%=      5-min Rain = 0
KCO1 211106Z 12008KT 08/M03 A2978 RMK A01 T00821029  RH  045%=      5-min Rain = 0
KCO1 211107Z 11008KT 08/M03 A2978 RMK A01 T00821029  RH  045%=      5-min Rain = 0
KCO1 211108Z 11008KT 08/M03 A2978 RMK A01 T00821029  RH  045%=      5-min Rain = 0
KCO1 211109Z 11008KT 08/M03 A2978 RMK A01 T00821029  RH  045%=      5-min Rain = 0
KCO1 211110Z 11008KT 08/M03 A2978 RMK A01 T00821029  RH  045%=      5-min Rain = 0
KCO1 211111Z 12008KT 08/M03 A2978 RMK A01 T00821029  RH  046%=      5-min Rain = 0
KCO1 211112Z 12007KT 08/M03 A2978 RMK A01 T00811029  RH  046%=      5-min Rain = 0
KCO1 211113Z 12008KT 08/M03 A2978 RMK A01 T00821029  RH  046%=      5-min Rain = 0
KCO1 211114Z 11007KT 08/M03 A2978 RMK A01 T00821029  RH  046%=      5-min Rain = 0
KCO1 211115Z 12007KT 08/M03 A2978 RMK A01 T00821029  RH  045%=      5-min Rain = 0
KCO1 211116Z 12006KT 08/M03 A2978 RMK A01 T00821029  RH  045%=      5-min Rain = 0
KCO1 211117Z 12008KT 08/M03 A2978 RMK A01 T00821029  RH  045%=      5-min Rain = 0
KCO1 211118Z 12007KT 08/M03 A2978 RMK A01 T00821029  RH  045%=      5-min Rain = 0
KCO1 211119Z 12005KT 08/M03 A2978 RMK A01 T00821029  RH  045%=      5-min Rain = 0
KCO1 211120Z 12005KT 08/M03 A2978 RMK A01 T00821029  RH  046%=      5-min Rain = 0
KCO1 211121Z 12007KT 08/M03 A2978 RMK A01 T00821029  RH  046%=      5-min Rain = 0
KCO1 211122Z 13006KT 08/M03 A2978 RMK A01 T00821028  RH  046%=      5-min Rain = 0
KCO1 211123Z 13008KT 08/M03 A2978 RMK A01 T00811029  RH  046%=      5-min Rain = 0
KCO1 211124Z 13008KT 08/M03 A2978 RMK A01 T00811029  RH  046%=      5-min Rain = 0
KCO1 211125Z 13008KT 08/M03 A2978 RMK A01 T00811029  RH  046%=      5-min Rain = 0
KCO1 211126Z 12008KT 08/M03 A2978 RMK A01 T00811029  RH  046%=      5-min Rain = 0
KCO1 211127Z 13009KT 08/M03 A2978 RMK A01 T00811028  RH  046%=      5-min Rain = 0
KCO1 211128Z 12008KT 08/M03 A2978 RMK A01 T00811028  RH  046%=      5-min Rain = 0
KCO1 211129Z 12009KT 08/M03 A2978 RMK A01 T00811028  RH  046%=      5-min Rain = 0
KCO1 211130Z 12008KT 08/M03 A2978 RMK A01 T00811028  RH  046%=      5-min Rain = 0
KCO1 211131Z 12008KT 08/M03 A2977 RMK A01 T00811028  RH  046%=      5-min Rain = 0
KCO1 211132Z 11008KT 08/M03 A2977 RMK A01 T00811028  RH  046%=      5-min Rain = 0
KCO1 211133Z 12009KT 08/M03 A2977 RMK A01 T00811028  RH  046%=      5-min Rain = 0
KCO1 211134Z 12007KT 08/M03 A2978 RMK A01 T00811028  RH  046%=      5-min Rain = 0
KCO1 211135Z 12009KT 08/M03 A2978 RMK A01 T00811028  RH  046%=      5-min Rain = 0
KCO1 211136Z 12008KT 08/M03 A2978 RMK A01 T00821027  RH  046%=      5-min Rain = 0
KCO1 211137Z 12008KT 08/M03 A2978 RMK A01 T00821028  RH  046%=      5-min Rain = 0
KCO1 211138Z 12007KT 08/M03 A2978 RMK A01 T00821028  RH  046%=      5-min Rain = 0
KCO1 211139Z 12007KT 08/M03 A2978 RMK A01 T00821028  RH  046%=      5-min Rain = 0
KCO1 211140Z 12008KT 08/M03 A2978 RMK A01 T00821028  RH  046%=      5-min Rain = 0
KCO1 211141Z 12008KT 08/M03 A2978 RMK A01 T00821028  RH  046%=      5-min Rain = 0
KCO1 211142Z 12007KT 08/M03 A2978 RMK A01 T00831028  RH  046%=      5-min Rain = 0
KCO1 211143Z 12008KT 08/M03 A2978 RMK A01 T00831028  RH  046%=      5-min Rain = 0
KCO1 211144Z 12007KT 08/M03 A2978 RMK A01 T00831028  RH  046%=      5-min Rain = 0
KCO1 211145Z 12008KT 08/M03 A2978 RMK A01 T00831028  RH  046%=      5-min Rain = 0
KCO1 211146Z 12008KT 08/M03 A2978 RMK A01 T00831028  RH  046%=      5-min Rain = 0
KCO1 211147Z 12009KT 08/M03 A2978 RMK A01 T00831027  RH  046%=      5-min Rain = 0
KCO1 211148Z 12007KT 08/M03 A2978 RMK A01 T00831028  RH  046%=      5-min Rain = 0
KCO1 211149Z 12007KT 08/M03 A2978 RMK A01 T00831028  RH  045%=      5-min Rain = 0
KCO1 211150Z 12006KT 08/M03 A2978 RMK A01 T00831028  RH  045%=      5-min Rain = 0
KCO1 211151Z 12008KT 08/M03 A2978 RMK A01 T00831028  RH  045%=      5-min Rain = 0
KCO1 211152Z 12008KT 08/M03 A2978 RMK A01 T00831028  RH  046%=      5-min Rain = 0
KCO1 211153Z 12008KT 08/M03 A2978 RMK A01 T00831028  RH  046%=      5-min Rain = 0
KCO1 211154Z 12010KT 08/M03 A2978 RMK A01 T00831028  RH  046%=      5-min Rain = 0
KCO1 211155Z 12009KT 08/M03 A2978 RMK A01 T00841027  RH  045%=      5-min Rain = 0
KCO1 211156Z 11010KT 08/M03 A2978 RMK A01 T00841028  RH  045%=      5-min Rain = 0
KCO1 211157Z 12010KT 08/M03 A2978 RMK A01 T00841027  RH  045%=      5-min Rain = 0
KCO1 211158Z 12008KT 08/M03 A2978 RMK A01 T00841027  RH  046%=      5-min Rain = 0
KCO1 211159Z 12009KT 08/M03 A2978 RMK A01 T00841027  RH  046%=      5-min Rain = 0
KCO1 211200Z 13009KT 08/M03 A2978 RMK A01 T00831027  RH  046%=      5-min Rain = 0
KCO1 211201Z 12009KT 08/M03 A2978 RMK A01 T00831027  RH  046%=      5-min Rain = 0
KCO1 211202Z 12009KT 08/M03 A2978 RMK A01 T00841027  RH  046%=      5-min Rain = 0
KCO1 211203Z 12009KT 08/M03 A2977 RMK A01 T00841027  RH  045%=      5-min Rain = 0
KCO1 211204Z 12007KT 08/M03 A2978 RMK A01 T00831028  RH  045%=      5-min Rain = 0
KCO1 211205Z 12008KT 08/M03 A2978 RMK A01 T00841028  RH  045%=      5-min Rain = 0
KCO1 211206Z 13008KT 08/M03 A2978 RMK A01 T00831028  RH  045%=      5-min Rain = 0
KCO1 211207Z 13009KT 08/M03 A2978 RMK A01 T00841028  RH  045%=      5-min Rain = 0
KCO1 211208Z 12008KT 08/M03 A2978 RMK A01 T00841028  RH  045%=      5-min Rain = 0
KCO1 211209Z 12009KT 08/M03 A2978 RMK A01 T00841028  RH  045%=      5-min Rain = 0
KCO1 211210Z 12008KT 08/M03 A2978 RMK A01 T00831028  RH  045%=      5-min Rain = 0
KCO1 211211Z 12009KT 08/M03 A2978 RMK A01 T00841027  RH  045%=      5-min Rain = 0
KCO1 211212Z 12009KT 08/M03 A2978 RMK A01 T00831027  RH  046%=      5-min Rain = 0
KCO1 211213Z 12008KT 08/M03 A2978 RMK A01 T00841027  RH  046%=      5-min Rain = 0
KCO1 211214Z 12009KT 08/M03 A2978 RMK A01 T00841027  RH  046%=      5-min Rain = 0
KCO1 211215Z 12007KT 08/M03 A2978 RMK A01 T00841027  RH  046%=      5-min Rain = 0
KCO1 211216Z 12008KT 08/M03 A2978 RMK A01 T00841027  RH  046%=      5-min Rain = 0
KCO1 211217Z 12008KT 08/M03 A2979 RMK A01 T00841027  RH  045%=      5-min Rain = 0
KCO1 211218Z 13007KT 08/M03 A2979 RMK A01 T00841027  RH  045%=      5-min Rain = 0
KCO1 211219Z 12007KT 08/M03 A2979 RMK A01 T00841028  RH  045%=      5-min Rain = 0
KCO1 211220Z 12008KT 08/M03 A2979 RMK A01 T00841027  RH  045%=      5-min Rain = 0
KCO1 211221Z 12008KT 08/M03 A2979 RMK A01 T00841028  RH  045%=      5-min Rain = 0
KCO1 211222Z 12008KT 08/M03 A2979 RMK A01 T00841027  RH  045%=      5-min Rain = 0
KCO1 211223Z 11009KT 08/M03 A2978 RMK A01 T00841027  RH  045%=      5-min Rain = 0
KCO1 211224Z 11009KT 08/M03 A2978 RMK A01 T00841028  RH  045%=      5-min Rain = 0
KCO1 211225Z 12008KT 08/M03 A2979 RMK A01 T00831028  RH  045%=      5-min Rain = 0
KCO1 211226Z 12010KT 08/M03 A2979 RMK A01 T00831028  RH  046%=      5-min Rain = 0
KCO1 211227Z 12010KT 08/M03 A2979 RMK A01 T00831028  RH  046%=      5-min Rain = 0
KCO1 211228Z 12008KT 08/M03 A2979 RMK A01 T00831028  RH  046%=      5-min Rain = 0
KCO1 211229Z 12008KT 08/M03 A2979 RMK A01 T00831028  RH  046%=      5-min Rain = 0
KCO1 211230Z 11008KT 08/M03 A2979 RMK A01 T00831028  RH  046%=      5-min Rain = 0
KCO1 211231Z 11009KT 08/M03 A2979 RMK A01 T00821028  RH  046%=      5-min Rain = 0
KCO1 211232Z 11008KT 08/M03 A2979 RMK A01 T00821028  RH  046%=      5-min Rain = 0
KCO1 211233Z 11007KT 08/M03 A2979 RMK A01 T00821028  RH  046%=      5-min Rain = 0
KCO1 211234Z 11008KT 08/M03 A2979 RMK A01 T00811028  RH  046%=      5-min Rain = 0
KCO1 211235Z 11008KT 08/M03 A2979 RMK A01 T00811027  RH  046%=      5-min Rain = 0
KCO1 211236Z 11008KT 08/M03 A2979 RMK A01 T00811028  RH  046%=      5-min Rain = 0
KCO1 211237Z 11009KT 08/M03 A2979 RMK A01 T00811028  RH  046%=      5-min Rain = 0
KCO1 211238Z 11008KT 08/M03 A2979 RMK A01 T00811028  RH  046%=      5-min Rain = 0
KCO1 211239Z 11009KT 08/M03 A2979 RMK A01 T00811027  RH  046%=      5-min Rain = 0
KCO1 211240Z 11008KT 08/M03 A2979 RMK A01 T00811028  RH  046%=      5-min Rain = 0
KCO1 211241Z 11007KT 08/M03 A2979 RMK A01 T00811028  RH  046%=      5-min Rain = 0
KCO1 211242Z 11009KT 08/M03 A2979 RMK A01 T00811027  RH  046%=      5-min Rain = 0
KCO1 211243Z 11008KT 08/M03 A2979 RMK A01 T00811027  RH  046%=      5-min Rain = 0
KCO1 211244Z 10008KT 08/M03 A2979 RMK A01 T00811027  RH  046%=      5-min Rain = 0
KCO1 211245Z 11008KT 08/M03 A2979 RMK A01 T00811028  RH  046%=      5-min Rain = 0
KCO1 211246Z 11008KT 08/M03 A2979 RMK A01 T00811027  RH  046%=      5-min Rain = 0
KCO1 211247Z 11008KT 08/M03 A2979 RMK A01 T00811027  RH  046%=      5-min Rain = 0
KCO1 211248Z 11008KT 08/M03 A2979 RMK A01 T00811027  RH  046%=      5-min Rain = 0
KCO1 211249Z 11008KT 08/M03 A2979 RMK A01 T00821027  RH  046%=      5-min Rain = 0
KCO1 211250Z 11007KT 08/M03 A2979 RMK A01 T00821027  RH  046%=      5-min Rain = 0
KCO1 211251Z 11007KT 08/M03 A2979 RMK A01 T00821027  RH  046%=      5-min Rain = 0
KCO1 211252Z 11009KT 08/M03 A2979 RMK A01 T00821027  RH  046%=      5-min Rain = 0
KCO1 211253Z 11008KT 08/M03 A2979 RMK A01 T00821027  RH  046%=      5-min Rain = 0
KCO1 211254Z 11009KT 08/M03 A2979 RMK A01 T00821027  RH  046%=      5-min Rain = 0
KCO1 211255Z 11009KT 08/M03 A2979 RMK A01 T00821027  RH  046%=      5-min Rain = 0
KCO1 211256Z 11009KT 08/M03 A2979 RMK A01 T00821027  RH  046%=      5-min Rain = 0
KCO1 211257Z 11009KT 08/M03 A2979 RMK A01 T00831027  RH  046%=      5-min Rain = 0
KCO1 211258Z 11009KT 08/M03 A2979 RMK A01 T00831027  RH  046%=      5-min Rain = 0
KCO1 211259Z 11009KT 08/M03 A2979 RMK A01 T00831026  RH  046%=      5-min Rain = 0
KCO1 211300Z 11009KT 08/M03 A2979 RMK A01 T00831027  RH  046%=      5-min Rain = 0
KCO1 211301Z 11010KT 08/M03 A2979 RMK A01 T00831027  RH  046%=      5-min Rain = 0
KCO1 211302Z 11010KT 08/M03 A2978 RMK A01 T00831027  RH  046%=      5-min Rain = 0
KCO1 211303Z 11010KT 08/M03 A2979 RMK A01 T00831027  RH  046%=      5-min Rain = 0
KCO1 211304Z 12009KT 08/M03 A2979 RMK A01 T00831027  RH  046%=      5-min Rain = 0
KCO1 211305Z 12010KT 08/M03 A2979 RMK A01 T00831027  RH  046%=      5-min Rain = 0
KCO1 211306Z 12009KT 08/M03 A2979 RMK A01 T00831027  RH  046%=      5-min Rain = 0
KCO1 211307Z 11010KT 08/M03 A2979 RMK A01 T00831027  RH  046%=      5-min Rain = 0
KCO1 211308Z 11009KT 08/M03 A2979 RMK A01 T00831027  RH  046%=      5-min Rain = 0
KCO1 211309Z 12011KT 08/M03 A2979 RMK A01 T00831027  RH  046%=      5-min Rain = 0
KCO1 211310Z 12011KT 08/M03 A2979 RMK A01 T00831027  RH  046%=      5-min Rain = 0
KCO1 211311Z 12012KT 08/M03 A2979 RMK A01 T00831027  RH  046%=      5-min Rain = 0
KCO1 211312Z 11011KT 08/M03 A2979 RMK A01 T00831027  RH  046%=      5-min Rain = 0
KCO1 211313Z 11010KT 08/M03 A2978 RMK A01 T00831027  RH  046%=      5-min Rain = 0
KCO1 211314Z 12010KT 08/M03 A2979 RMK A01 T00831027  RH  046%=      5-min Rain = 0
KCO1 211315Z 12011KT 08/M03 A2979 RMK A01 T00831027  RH  046%=      5-min Rain = 0
KCO1 211316Z 11011KT 08/M03 A2979 RMK A01 T00831028  RH  046%=      5-min Rain = 0
KCO1 211317Z 11010KT 08/M03 A2979 RMK A01 T00831028  RH  046%=      5-min Rain = 0
KCO1 211318Z 11009KT 08/M03 A2979 RMK A01 T00831028  RH  045%=      5-min Rain = 0
KCO1 211319Z 11009KT 08/M03 A2979 RMK A01 T00841028  RH  045%=      5-min Rain = 0
KCO1 211320Z 11009KT 08/M03 A2979 RMK A01 T00841028  RH  045%=      5-min Rain = 0
KCO1 211321Z 11008KT 08/M03 A2979 RMK A01 T00831028  RH  045%=      5-min Rain = 0
KCO1 211322Z 11008KT 08/M03 A2979 RMK A01 T00831028  RH  045%=      5-min Rain = 0
KCO1 211323Z 11008KT 08/M03 A2979 RMK A01 T00831028  RH  046%=      5-min Rain = 0
KCO1 211324Z 11008KT 08/M03 A2979 RMK A01 T00831028  RH  046%=      5-min Rain = 0
KCO1 211325Z 11009KT 08/M03 A2979 RMK A01 T00831028  RH  046%=      5-min Rain = 0
KCO1 211326Z 11009KT 08/M03 A2979 RMK A01 T00831028  RH  046%=      5-min Rain = 0
KCO1 211327Z 11008KT 08/M03 A2979 RMK A01 T00831028  RH  046%=      5-min Rain = 0
KCO1 211328Z 11008KT 08/M03 A2979 RMK A01 T00831028  RH  046%=      5-min Rain = 0
KCO1 211329Z 11009KT 08/M03 A2979 RMK A01 T00831028  RH  046%=      5-min Rain = 0
KCO1 211330Z 11008KT 08/M03 A2979 RMK A01 T00821028  RH  046%=      5-min Rain = 0
KCO1 211331Z 12008KT 08/M03 A2979 RMK A01 T00821028  RH  046%=      5-min Rain = 0
KCO1 211332Z 12008KT 08/M03 A2979 RMK A01 T00821028  RH  046%=      5-min Rain = 0
KCO1 211333Z 11009KT 08/M03 A2979 RMK A01 T00811029  RH  046%=      5-min Rain = 0
KCO1 211334Z 11009KT 08/M03 A2979 RMK A01 T00811029  RH  046%=      5-min Rain = 0
KCO1 211335Z 12009KT 08/M03 A2979 RMK A01 T00811029  RH  046%=      5-min Rain = 0
KCO1 211336Z 11010KT 08/M03 A2979 RMK A01 T00811029  RH  046%=      5-min Rain = 0
KCO1 211337Z 11009KT 08/M03 A2979 RMK A01 T00821029  RH  046%=      5-min Rain = 0
KCO1 211338Z 11008KT 08/M03 A2979 RMK A01 T00821029  RH  045%=      5-min Rain = 0
KCO1 211339Z 11009KT 08/M03 A2979 RMK A01 T00821029  RH  045%=      5-min Rain = 0
KCO1 211340Z 11008KT 08/M03 A2979 RMK A01 T00821029  RH  045%=      5-min Rain = 0
KCO1 211341Z 11008KT 08/M03 A2979 RMK A01 T00821029  RH  045%=      5-min Rain = 0
KCO1 211342Z 11008KT 08/M03 A2979 RMK A01 T00821029  RH  045%=      5-min Rain = 0
KCO1 211343Z 10009KT 08/M03 A2979 RMK A01 T00821029  RH  045%=      5-min Rain = 0
KCO1 211344Z 10009KT 08/M03 A2979 RMK A01 T00821029  RH  045%=      5-min Rain = 0
KCO1 211345Z 11009KT 08/M03 A2979 RMK A01 T00821029  RH  045%=      5-min Rain = 0
KCO1 211346Z 11008KT 08/M03 A2979 RMK A01 T00811030  RH  045%=      5-min Rain = 0
KCO1 211347Z 11007KT 08/M03 A2979 RMK A01 T00821029  RH  045%=      5-min Rain = 0
KCO1 211348Z 11008KT 08/M03 A2979 RMK A01 T00811030  RH  045%=      5-min Rain = 0
KCO1 211349Z 11008KT 08/M03 A2979 RMK A01 T00821029  RH  045%=      5-min Rain = 0
KCO1 211350Z 11008KT 08/M03 A2979 RMK A01 T00811030  RH  045%=      5-min Rain = 0
KCO1 211351Z 11007KT 08/M03 A2979 RMK A01 T00811030  RH  045%=      5-min Rain = 0
KCO1 211352Z 11008KT 08/M03 A2979 RMK A01 T00811030  RH  045%=      5-min Rain = 0
KCO1 211353Z 11008KT 08/M03 A2979 RMK A01 T00821030  RH  045%=      5-min Rain = 0
KCO1 211354Z 11008KT 08/M03 A2979 RMK A01 T00811030  RH  045%=      5-min Rain = 0
KCO1 211355Z 11008KT 08/M03 A2979 RMK A01 T00811030  RH  045%=      5-min Rain = 0
KCO1 211356Z 12010KT 08/M03 A2979 RMK A01 T00821030  RH  045%=      5-min Rain = 0
KCO1 211357Z 11010KT 08/M03 A2979 RMK A01 T00821030  RH  045%=      5-min Rain = 0
KCO1 211358Z 11011KT 08/M03 A2979 RMK A01 T00821030  RH  045%=      5-min Rain = 0
KCO1 211359Z 12013KT 08/M03 A2979 RMK A01 T00831030  RH  045%=      5-min Rain = 0
KCO1 211400Z 12011KT 08/M03 A2979 RMK A01 T00831030  RH  045%=      5-min Rain = 0
KCO1 211401Z 11012KT 08/M03 A2979 RMK A01 T00831030  RH  045%=      5-min Rain = 0
KCO1 211402Z 11012KT 08/M03 A2979 RMK A01 T00831030  RH  045%=      5-min Rain = 0
KCO1 211403Z 12012KT 08/M03 A2979 RMK A01 T00831030  RH  045%=      5-min Rain = 0
KCO1 211404Z 11011KT 08/M03 A2979 RMK A01 T00841030  RH  045%=      5-min Rain = 0
KCO1 211405Z 11010KT 08/M03 A2979 RMK A01 T00841030  RH  044%=      5-min Rain = 0
KCO1 211406Z 11010KT 08/M03 A2979 RMK A01 T00841030  RH  044%=      5-min Rain = 0
KCO1 211407Z 11010KT 08/M03 A2979 RMK A01 T00841030  RH  045%=      5-min Rain = 0
KCO1 211408Z 12010KT 08/M03 A2979 RMK A01 T00841030  RH  045%=      5-min Rain = 0
KCO1 211409Z 11010KT 08/M03 A2979 RMK A01 T00841030  RH  044%=      5-min Rain = 0
KCO1 211410Z 11011KT 09/M03 A2979 RMK A01 T00851030  RH  044%=      5-min Rain = 0
KCO1 211411Z 12011KT 09/M03 A2979 RMK A01 T00851030  RH  044%=      5-min Rain = 0
KCO1 211412Z 11011KT 09/M03 A2979 RMK A01 T00851030  RH  044%=      5-min Rain = 0
KCO1 211413Z 12012KT 09/M03 A2979 RMK A01 T00851030  RH  044%=      5-min Rain = 0
KCO1 211414Z 12011KT 09/M03 A2979 RMK A01 T00851030  RH  044%=      5-min Rain = 0
KCO1 211415Z 12010KT 09/M03 A2979 RMK A01 T00851030  RH  044%=      5-min Rain = 0
KCO1 211416Z 12012KT 09/M03 A2979 RMK A01 T00851030  RH  044%=      5-min Rain = 0
KCO1 211417Z 12011KT 09/M03 A2979 RMK A01 T00851030  RH  044%=      5-min Rain = 0
KCO1 211418Z 12009KT 09/M03 A2979 RMK A01 T00861030  RH  044%=      5-min Rain = 0
KCO1 211419Z 12011KT 09/M03 A298 RMK A01 T00861030  RH  044%=      5-min Rain = 0
KCO1 211420Z 11009KT 09/M03 A298 RMK A01 T00861031  RH  044%=      5-min Rain = 0
KCO1 211421Z 11010KT 09/M03 A298 RMK A01 T00861030  RH  044%=      5-min Rain = 0
KCO1 211422Z 11010KT 09/M03 A298 RMK A01 T00861030  RH  044%=      5-min Rain = 0
KCO1 211423Z 11009KT 09/M03 A298 RMK A01 T00861030  RH  044%=      5-min Rain = 0
KCO1 211424Z 11010KT 09/M03 A298 RMK A01 T00861030  RH  044%=      5-min Rain = 0
KCO1 211425Z 11008KT 09/M03 A298 RMK A01 T00871030  RH  044%=      5-min Rain = 0
KCO1 211426Z 11009KT 09/M03 A298 RMK A01 T00871030  RH  044%=      5-min Rain = 0
KCO1 211427Z 11009KT 09/M03 A2981 RMK A01 T00871030  RH  044%=      5-min Rain = 0
KCO1 211428Z 11011KT 09/M03 A2981 RMK A01 T00871030  RH  044%=      5-min Rain = 0
KCO1 211429Z 12010KT 09/M03 A2981 RMK A01 T00881030  RH  043%=      5-min Rain = 0
KCO1 211430Z 12009KT 09/M03 A2981 RMK A01 T00881030  RH  043%=      5-min Rain = 0
KCO1 211431Z 11010KT 09/M03 A2981 RMK A01 T00881030  RH  043%=      5-min Rain = 0
KCO1 211432Z 12010KT 09/M03 A2981 RMK A01 T00891030  RH  043%=      5-min Rain = 0
KCO1 211433Z 12009KT 09/M03 A2981 RMK A01 T00891030  RH  043%=      5-min Rain = 0
KCO1 211434Z 12009KT 09/M03 A2981 RMK A01 T00891029  RH  043%=      5-min Rain = 0
KCO1 211435Z 12010KT 09/M03 A2981 RMK A01 T00891029  RH  043%=      5-min Rain = 0
KCO1 211436Z 12011KT 09/M03 A2981 RMK A01 T00901029  RH  043%=      5-min Rain = 0
KCO1 211437Z 12009KT 09/M03 A2981 RMK A01 T00891030  RH  043%=      5-min Rain = 0
KCO1 211438Z 12011KT 09/M03 A2981 RMK A01 T00901029  RH  043%=      5-min Rain = 0
KCO1 211439Z 12010KT 09/M03 A2981 RMK A01 T00901029  RH  043%=      5-min Rain = 0
KCO1 211440Z 12010KT 09/M03 A2981 RMK A01 T00901029  RH  043%=      5-min Rain = 0
KCO1 211441Z 12010KT 09/M03 A2981 RMK A01 T00911029  RH  043%=      5-min Rain = 0
KCO1 211442Z 12011KT 09/M03 A2981 RMK A01 T00901029  RH  043%=      5-min Rain = 0
KCO1 211443Z 12009KT 09/M03 A2981 RMK A01 T00901029  RH  043%=      5-min Rain = 0
KCO1 211444Z 12010KT 09/M03 A2981 RMK A01 T00911029  RH  043%=      5-min Rain = 0
KCO1 211445Z 11010KT 09/M03 A2981 RMK A01 T00911029  RH  043%=      5-min Rain = 0
KCO1 211446Z 11008KT 09/M03 A2981 RMK A01 T00911028  RH  043%=      5-min Rain = 0
KCO1 211447Z 11009KT 09/M03 A2981 RMK A01 T00911028  RH  043%=      5-min Rain = 0
KCO1 211448Z 11008KT 09/M03 A2981 RMK A01 T00911028  RH  043%=      5-min Rain = 0
KCO1 211449Z 11006KT 09/M03 A2981 RMK A01 T00911028  RH  043%=      5-min Rain = 0
KCO1 211450Z 11007KT 09/M03 A2981 RMK A01 T00921028  RH  043%=      5-min Rain = 0
KCO1 211451Z 12010KT 09/M03 A2981 RMK A01 T00921027  RH  043%=      5-min Rain = 0
KCO1 211452Z 11010KT 09/M03 A2982 RMK A01 T00921028  RH  043%=      5-min Rain = 0
KCO1 211453Z 11011KT 09/M03 A2982 RMK A01 T00921028  RH  043%=      5-min Rain = 0
KCO1 211454Z 11009KT 09/M03 A2982 RMK A01 T00921028  RH  043%=      5-min Rain = 0
KCO1 211455Z 11009KT 09/M03 A2982 RMK A01 T00931028  RH  043%=      5-min Rain = 0
KCO1 211456Z 11009KT 09/M03 A2982 RMK A01 T00931027  RH  043%=      5-min Rain = 0
KCO1 211457Z 12009KT 09/M03 A2982 RMK A01 T00931027  RH  043%=      5-min Rain = 0
KCO1 211458Z 12011KT 09/M03 A2982 RMK A01 T00941027  RH  043%=      5-min Rain = 0
KCO1 211459Z 12010KT 09/M03 A2982 RMK A01 T00941028  RH  042%=      5-min Rain = 0
KCO1 211500Z 11010KT 09/M03 A2982 RMK A01 T00941027  RH  042%=      5-min Rain = 0
KCO1 211501Z 12009KT 09/M03 A2982 RMK A01 T00941027  RH  042%=      5-min Rain = 0
KCO1 211502Z 12009KT 10/M03 A2982 RMK A01 T00951026  RH  042%=      5-min Rain = 0
KCO1 211503Z 12009KT 10/M03 A2982 RMK A01 T00961026  RH  042%=      5-min Rain = 0
KCO1 211504Z 11008KT 10/M03 A2982 RMK A01 T00961027  RH  042%=      5-min Rain = 0
KCO1 211505Z 12009KT 10/M03 A2982 RMK A01 T00961026  RH  042%=      5-min Rain = 0
KCO1 211506Z 11009KT 10/M03 A2982 RMK A01 T00961026  RH  042%=      5-min Rain = 0
KCO1 211507Z 12010KT 10/M03 A2982 RMK A01 T00961026  RH  042%=      5-min Rain = 0
KCO1 211508Z 12008KT 10/M03 A2982 RMK A01 T00971027  RH  042%=      5-min Rain = 0
KCO1 211509Z 12010KT 10/M03 A2982 RMK A01 T00971026  RH  042%=      5-min Rain = 0
KCO1 211510Z 12009KT 10/M03 A2982 RMK A01 T00971026  RH  042%=      5-min Rain = 0
KCO1 211511Z 12007KT 10/M03 A2982 RMK A01 T00981025  RH  042%=      5-min Rain = 0
KCO1 211512Z 12008KT 10/M03 A2982 RMK A01 T00981025  RH  042%=      5-min Rain = 0
KCO1 211513Z 12010KT 10/M03 A2982 RMK A01 T00991025  RH  042%=      5-min Rain = 0
KCO1 211514Z 12009KT 10/M03 A2982 RMK A01 T00991025  RH  042%=      5-min Rain = 0
KCO1 211515Z 12010KT 10/M03 A2982 RMK A01 T00991025  RH  042%=      5-min Rain = 0
KCO1 211516Z 12012KT 10/M03 A2983 RMK A01 T01001025  RH  042%=      5-min Rain = 0
KCO1 211517Z 12012KT 10/M03 A2983 RMK A01 T01001025  RH  041%=      5-min Rain = 0
KCO1 211518Z 12012KT 10/M03 A2983 RMK A01 T01001025  RH  041%=      5-min Rain = 0
KCO1 211519Z 12012KT 10/M03 A2983 RMK A01 T01001025  RH  041%=      5-min Rain = 0
KCO1 211520Z 13011KT 10/M03 A2983 RMK A01 T01001025  RH  041%=      5-min Rain = 0
KCO1 211521Z 12012KT 10/M03 A2983 RMK A01 T01001025  RH  041%=      5-min Rain = 0
KCO1 211522Z 13010KT 10/M02 A2983 RMK A01 T01011024  RH  041%=      5-min Rain = 0
KCO1 211523Z 13012KT 10/M02 A2983 RMK A01 T01011024  RH  041%=      5-min Rain = 0
KCO1 211524Z 12011KT 10/M02 A2983 RMK A01 T01021024  RH  041%=      5-min Rain = 0
KCO1 211525Z 13010KT 10/M02 A2983 RMK A01 T01021024  RH  041%=      5-min Rain = 0
KCO1 211526Z 13010KT 10/M02 A2983 RMK A01 T01021023  RH  041%=      5-min Rain = 0
KCO1 211527Z 14010KT 10/M02 A2983 RMK A01 T01031023  RH  041%=      5-min Rain = 0
KCO1 211528Z 13010KT 10/M02 A2983 RMK A01 T01031023  RH  041%=      5-min Rain = 0
KCO1 211529Z 13010KT 10/M02 A2983 RMK A01 T01041023  RH  041%=      5-min Rain = 0
KCO1 211530Z 13009KT 11/M02 A2983 RMK A01 T01051022  RH  041%=      5-min Rain = 0
KCO1 211531Z 13010KT 11/M02 A2983 RMK A01 T01051022  RH  041%=      5-min Rain = 0
KCO1 211532Z 13011KT 11/M02 A2983 RMK A01 T01061022  RH  041%=      5-min Rain = 0
KCO1 211533Z 13009KT 11/M02 A2983 RMK A01 T01061022  RH  041%=      5-min Rain = 0
KCO1 211534Z 13010KT 11/M02 A2983 RMK A01 T01061022  RH  041%=      5-min Rain = 0
KCO1 211535Z 13010KT 11/M02 A2983 RMK A01 T01061022  RH  041%=      5-min Rain = 0
KCO1 211536Z 13011KT 11/M02 A2983 RMK A01 T01071022  RH  041%=      5-min Rain = 0
KCO1 211537Z 13010KT 11/M02 A2983 RMK A01 T01071022  RH  041%=      5-min Rain = 0
KCO1 211538Z 13009KT 11/M02 A2983 RMK A01 T01071021  RH  041%=      5-min Rain = 0
KCO1 211539Z 14010KT 11/M02 A2983 RMK A01 T01081021  RH  040%=      5-min Rain = 0
KCO1 211540Z 14009KT 11/M02 A2983 RMK A01 T01081021  RH  040%=      5-min Rain = 0
KCO1 211541Z 14009KT 11/M02 A2983 RMK A01 T01091021  RH  040%=      5-min Rain = 0
KCO1 211542Z 14009KT 11/M02 A2983 RMK A01 T01091021  RH  040%=      5-min Rain = 0
KCO1 211543Z 14008KT 11/M02 A2984 RMK A01 T01091021  RH  040%=      5-min Rain = 0
KCO1 211544Z 14007KT 11/M02 A2984 RMK A01 T01091020  RH  040%=      5-min Rain = 0
KCO1 211545Z 14009KT 11/M02 A2984 RMK A01 T01101020  RH  040%=      5-min Rain = 0
KCO1 211546Z 14008KT 11/M02 A2984 RMK A01 T01101020  RH  040%=      5-min Rain = 0
KCO1 211547Z 14008KT 11/M02 A2984 RMK A01 T01101020  RH  040%=      5-min Rain = 0
KCO1 211548Z 13007KT 11/M02 A2984 RMK A01 T01111020  RH  040%=      5-min Rain = 0
KCO1 211549Z 13008KT 11/M02 A2983 RMK A01 T01111019  RH  040%=      5-min Rain = 0
KCO1 211550Z 13008KT 11/M02 A2983 RMK A01 T01121019  RH  040%=      5-min Rain = 0
KCO1 211551Z 13008KT 11/M02 A2983 RMK A01 T01121019  RH  040%=      5-min Rain = 0
KCO1 211552Z 13008KT 11/M02 A2983 RMK A01 T01121018  RH  040%=      5-min Rain = 0
KCO1 211553Z 13009KT 11/M02 A2983 RMK A01 T01131018  RH  040%=      5-min Rain = 0
KCO1 211554Z 14008KT 11/M02 A2983 RMK A01 T01141018  RH  040%=      5-min Rain = 0
KCO1 211555Z 14007KT 11/M02 A2983 RMK A01 T01141018  RH  040%=      5-min Rain = 0
KCO1 211556Z 13005KT 12/M02 A2983 RMK A01 T01151017  RH  040%=      5-min Rain = 0
KCO1 211557Z 13006KT 12/M02 A2983 RMK A01 T01161015  RH  040%=      5-min Rain = 0
KCO1 211558Z 13006KT 12/M02 A2983 RMK A01 T01171016  RH  040%=      5-min Rain = 0
KCO1 211559Z 13005KT 12/M02 A2983 RMK A01 T01181015  RH  039%=      5-min Rain = 0
KCO1 211600Z 14007KT 12/M01 A2983 RMK A01 T01201013  RH  039%=      5-min Rain = 0
KCO1 211601Z 13008KT 12/M02 A2983 RMK A01 T01221015  RH  039%=      5-min Rain = 0
KCO1 211602Z 14008KT 12/M02 A2983 RMK A01 T01221015  RH  038%=      5-min Rain = 0
KCO1 211603Z 13008KT 12/M01 A2983 RMK A01 T01241014  RH  038%=      5-min Rain = 0
KCO1 211604Z 13010KT 13/M01 A2983 RMK A01 T01251013  RH  038%=      5-min Rain = 0
KCO1 211605Z 13010KT 13/M02 A2983 RMK A01 T01251015  RH  038%=      5-min Rain = 0
KCO1 211606Z 13010KT 13/M01 A2983 RMK A01 T01251014  RH  038%=      5-min Rain = 0
KCO1 211607Z 12010KT 12/M02 A2983 RMK A01 T01241016  RH  038%=      5-min Rain = 0
KCO1 211608Z 12010KT 12/M02 A2983 RMK A01 T01231015  RH  038%=      5-min Rain = 0
KCO1 211609Z 12011KT 12/M01 A2983 RMK A01 T01241014  RH  038%=      5-min Rain = 0
KCO1 211610Z 12009KT 12/M01 A2983 RMK A01 T01241014  RH  038%=      5-min Rain = 0
KCO1 211611Z 12011KT 13/M01 A2983 RMK A01 T01251013  RH  038%=      5-min Rain = 0
KCO1 211612Z 12009KT 13/M01 A2983 RMK A01 T01251014  RH  038%=      5-min Rain = 0
KCO1 211613Z 13009KT 13/M01 A2983 RMK A01 T01251014  RH  038%=      5-min Rain = 0
KCO1 211614Z 12008KT 13/M01 A2983 RMK A01 T01251013  RH  038%=      5-min Rain = 0
KCO1 211615Z 12008KT 13/M01 A2983 RMK A01 T01261013  RH  038%=      5-min Rain = 0
KCO1 211616Z 13007KT 13/M01 A2983 RMK A01 T01261012  RH  038%=      5-min Rain = 0
KCO1 211617Z 12007KT 13/M01 A2983 RMK A01 T01271012  RH  038%=      5-min Rain = 0
KCO1 211618Z 12009KT 13/M01 A2983 RMK A01 T01281011  RH  038%=      5-min Rain = 0
KCO1 211619Z 12009KT 13/M01 A2983 RMK A01 T01291011  RH  038%=      5-min Rain = 0
KCO1 211620Z 12009KT 13/M01 A2983 RMK A01 T01291011  RH  038%=      5-min Rain = 0
KCO1 211621Z 12007KT 13/M01 A2983 RMK A01 T01291012  RH  038%=      5-min Rain = 0
KCO1 211622Z 12008KT 13/M01 A2983 RMK A01 T01291010  RH  038%=      5-min Rain = 0
KCO1 211623Z 12008KT 13/M01 A2983 RMK A01 T01301011  RH  038%=      5-min Rain = 0
KCO1 211624Z 12008KT 13/M01 A2983 RMK A01 T01301011  RH  038%=      5-min Rain = 0
KCO1 211625Z 12007KT 13/M01 A2983 RMK A01 T01301011  RH  038%=      5-min Rain = 0
KCO1 211626Z 12010KT 13/M01 A2983 RMK A01 T01311011  RH  038%=      5-min Rain = 0
KCO1 211627Z 12010KT 13/M01 A2983 RMK A01 T01311011  RH  037%=      5-min Rain = 0
KCO1 211628Z 12009KT 13/M01 A2982 RMK A01 T01311011  RH  037%=      5-min Rain = 0
KCO1 211629Z 13011KT 13/M01 A2982 RMK A01 T01311011  RH  037%=      5-min Rain = 0
KCO1 211630Z 12011KT 13/M01 A2982 RMK A01 T01311011  RH  037%=      5-min Rain = 0
KCO1 211631Z 13009KT 13/M01 A2982 RMK A01 T01321010  RH  037%=      5-min Rain = 0
KCO1 211632Z 12008KT 13/M01 A2982 RMK A01 T01321010  RH  038%=      5-min Rain = 0
KCO1 211633Z 12010KT 13/M01 A2982 RMK A01 T01331009  RH  037%=      5-min Rain = 0
KCO1 211634Z 13009KT 13/M01 A2982 RMK A01 T01331009  RH  037%=      5-min Rain = 0
KCO1 211635Z 12009KT 13/M01 A2982 RMK A01 T01341010  RH  037%=      5-min Rain = 0
KCO1 211636Z 13010KT 13/M01 A2982 RMK A01 T01331011  RH  037%=      5-min Rain = 0
KCO1 211637Z 12010KT 13/M01 A2982 RMK A01 T01331010  RH  037%=      5-min Rain = 0
KCO1 211638Z 13008KT 13/M01 A2982 RMK A01 T01341010  RH  037%=      5-min Rain = 0
KCO1 211639Z 13006KT 14/M01 A2982 RMK A01 T01351009  RH  037%=      5-min Rain = 0
KCO1 211640Z 12009KT 14/M01 A2982 RMK A01 T01371007  RH  037%=      5-min Rain = 0
KCO1 211641Z 13010KT 14/M01 A2982 RMK A01 T01381008  RH  037%=      5-min Rain = 0
KCO1 211642Z 13008KT 14/M01 A2982 RMK A01 T01381009  RH  036%=      5-min Rain = 0
KCO1 211643Z 13008KT 14/M01 A2982 RMK A01 T01381009  RH  036%=      5-min Rain = 0
KCO1 211644Z 14009KT 14/M01 A2982 RMK A01 T01391009  RH  036%=      5-min Rain = 0
KCO1 211645Z 14008KT 14/M01 A2982 RMK A01 T01391009  RH  036%=      5-min Rain = 0
KCO1 211646Z 13007KT 14/M01 A2982 RMK A01 T01401009  RH  036%=      5-min Rain = 0
KCO1 211647Z 13008KT 14/M01 A2982 RMK A01 T01401008  RH  036%=      5-min Rain = 0
KCO1 211648Z 13008KT 14/M01 A2982 RMK A01 T01411009  RH  036%=      5-min Rain = 0
KCO1 211649Z 13007KT 14/M01 A2982 RMK A01 T01411010  RH  035%=      5-min Rain = 0
KCO1 211650Z 13007KT 14/M01 A2982 RMK A01 T01401010  RH  036%=      5-min Rain = 0
KCO1 211651Z 13008KT 14/M01 A2982 RMK A01 T01411009  RH  036%=      5-min Rain = 0
KCO1 211652Z 14006KT 14/M01 A2982 RMK A01 T01421008  RH  035%=      5-min Rain = 0
KCO1 211653Z 16008KT 14/M01 A2982 RMK A01 T01441007  RH  035%=      5-min Rain = 0
KCO1 211654Z 15007KT 14/M01 A2982 RMK A01 T01441010  RH  035%=      5-min Rain = 0
KCO1 211655Z 13007KT 14/M01 A2982 RMK A01 T01441009  RH  035%=      5-min Rain = 0
KCO1 211656Z 14006KT 15/M01 A2982 RMK A01 T01461005  RH  035%=      5-min Rain = 0
KCO1 211657Z 15007KT 15/M01 A2982 RMK A01 T01491006  RH  034%=      5-min Rain = 0
KCO1 211658Z 14007KT 15/M01 A2982 RMK A01 T01501009  RH  034%=      5-min Rain = 0
KCO1 211659Z 13008KT 15/M01 A2982 RMK A01 T01491010  RH  034%=      5-min Rain = 0
KCO1 211700Z 13007KT 15/M01 A2982 RMK A01 T01501008  RH  034%=      5-min Rain = 0
KCO1 211701Z 13008KT 15/M01 A2982 RMK A01 T01511008  RH  034%=      5-min Rain = 0
KCO1 211702Z 14008KT 15/M01 A2982 RMK A01 T01511009  RH  033%=      5-min Rain = 0
KCO1 211703Z 13006KT 15/M01 A2982 RMK A01 T01521007  RH  034%=      5-min Rain = 0
KCO1 211704Z 14008KT 16/M00 A2982 RMK A01 T01551004  RH  034%=      5-min Rain = 0
KCO1 211705Z 14008KT 16/M01 A2982 RMK A01 T01571005  RH  033%=      5-min Rain = 0
KCO1 211706Z 14007KT 16/M01 A2981 RMK A01 T01581005  RH  033%=      5-min Rain = 0
KCO1 211707Z 13007KT 16/M01 A2981 RMK A01 T01591006  RH  032%=      5-min Rain = 0
KCO1 211708Z 12010KT 16/M00 A2981 RMK A01 T01591004  RH  033%=      5-min Rain = 0
KCO1 211709Z 13010KT 16/M01 A2981 RMK A01 T01601005  RH  032%=      5-min Rain = 0
KCO1 211710Z 13008KT 16/M01 A2981 RMK A01 T01591006  RH  032%=      5-min Rain = 0
KCO1 211711Z 12007KT 16/M01 A2981 RMK A01 T01591005  RH  033%=      5-min Rain = 0
KCO1 211712Z 13008KT 16/M00 A2981 RMK A01 T01611002  RH  033%=      5-min Rain = 0
KCO1 211713Z 14009KT 16/M01 A2981 RMK A01 T01631006  RH  032%=      5-min Rain = 0
KCO1 211714Z 13008KT 16/M01 A2981 RMK A01 T01611007  RH  032%=      5-min Rain = 0
KCO1 211715Z 13009KT 16/M01 A2981 RMK A01 T01621007  RH  032%=      5-min Rain = 0
KCO1 211716Z 13010KT 16/M01 A2981 RMK A01 T01621009  RH  031%=      5-min Rain = 0
KCO1 211717Z 14009KT 16/M01 A298 RMK A01 T01611011  RH  031%=      5-min Rain = 0
KCO1 211718Z 14008KT 16/M01 A298 RMK A01 T01601013  RH  031%=      5-min Rain = 0
KCO1 211719Z 15008KT 16/M01 A2981 RMK A01 T01601013  RH  031%=      5-min Rain = 0
KCO1 211720Z 14006KT 16/M01 A2981 RMK A01 T01621012  RH  030%=      5-min Rain = 0
KCO1 211721Z 13008KT 17/M01 A2981 RMK A01 T01651009  RH  030%=      5-min Rain = 0
KCO1 211722Z 13007KT 17/M01 A2981 RMK A01 T01651012  RH  030%=      5-min Rain = 0
KCO1 211723Z 12004KT 16/M01 A2981 RMK A01 T01631013  RH  030%=      5-min Rain = 0
KCO1 211724Z 15006KT 17/M01 A2981 RMK A01 T01651011  RH  030%=      5-min Rain = 0
KCO1 211725Z 13007KT 17/M01 A2981 RMK A01 T01661013  RH  029%=      5-min Rain = 0
KCO1 211726Z 13006KT 17/M01 A2981 RMK A01 T01651014  RH  029%=      5-min Rain = 0
KCO1 211727Z 13006KT 16/M01 A2981 RMK A01 T01641012  RH  030%=      5-min Rain = 0
KCO1 211728Z 13006KT 16/M01 A2981 RMK A01 T01641010  RH  030%=      5-min Rain = 0
KCO1 211729Z 15005KT 17/M01 A2981 RMK A01 T01651011  RH  030%=      5-min Rain = 0
KCO1 211730Z 13006KT 17/M01 A2981 RMK A01 T01651011  RH  030%=      5-min Rain = 0
KCO1 211731Z 12006KT 17/M01 A2981 RMK A01 T01661011  RH  030%=      5-min Rain = 0
KCO1 211732Z 13005KT 17/M01 A2981 RMK A01 T01661013  RH  029%=      5-min Rain = 0
KCO1 211733Z 12006KT 17/M01 A2981 RMK A01 T01671009  RH  030%=      5-min Rain = 0
KCO1 211734Z 12006KT 17/M01 A2981 RMK A01 T01681011  RH  029%=      5-min Rain = 0
KCO1 211735Z 13004KT 17/M01 A2981 RMK A01 T01691011  RH  029%=      5-min Rain = 0
KCO1 211736Z 14007KT 17/M01 A298 RMK A01 T01701009  RH  030%=      5-min Rain = 0
KCO1 211737Z 15007KT 17/M01 A298 RMK A01 T01711010  RH  029%=      5-min Rain = 0
KCO1 211738Z 16006KT 17/M01 A298 RMK A01 T01711010  RH  029%=      5-min Rain = 0
KCO1 211739Z 19004KT 17/M01 A298 RMK A01 T01721010  RH  029%=      5-min Rain = 0
KCO1 211740Z 15004KT 17/M01 A298 RMK A01 T01721011  RH  029%=      5-min Rain = 0
KCO1 211741Z 13004KT 17/M01 A298 RMK A01 T01741010  RH  029%=      5-min Rain = 0
KCO1 211742Z 14006KT 18/M01 A298 RMK A01 T01761010  RH  028%=      5-min Rain = 0
KCO1 211743Z 14006KT 18/M01 A298 RMK A01 T01771010  RH  028%=      5-min Rain = 0
KCO1 211744Z 13007KT 18/M01 A298 RMK A01 T01781011  RH  028%=      5-min Rain = 0
KCO1 211745Z 14004KT 18/M01 A298 RMK A01 T01771012  RH  028%=      5-min Rain = 0
KCO1 211746Z 15006KT 18/M01 A298 RMK A01 T01771013  RH  028%=      5-min Rain = 0
KCO1 211747Z 15005KT 18/M01 A298 RMK A01 T01771012  RH  028%=      5-min Rain = 0
KCO1 211748Z 16005KT 18/M01 A298 RMK A01 T01781009  RH  028%=      5-min Rain = 0
KCO1 211749Z 14006KT 18/M01 A298 RMK A01 T01811009  RH  028%=      5-min Rain = 0
KCO1 211750Z 13006KT 18/M01 A298 RMK A01 T01811010  RH  027%=      5-min Rain = 0
KCO1 211751Z 14005KT 18/M01 A298 RMK A01 T01801009  RH  028%=      5-min Rain = 0
KCO1 211752Z 14004KT 18/M01 A298 RMK A01 T01801009  RH  028%=      5-min Rain = 0
KCO1 211753Z 15003KT 18/M01 A298 RMK A01 T01801011  RH  027%=      5-min Rain = 0
KCO1 211754Z 18003KT 18/M01 A298 RMK A01 T01801009  RH  028%=      5-min Rain = 0
KCO1 211755Z 13005KT 18/M01 A298 RMK A01 T01831006  RH  028%=      5-min Rain = 0
KCO1 211756Z 14006KT 19/M01 A298 RMK A01 T01861006  RH  027%=      5-min Rain = 0
KCO1 211757Z 15006KT 18/M01 A298 RMK A01 T01841009  RH  027%=      5-min Rain = 0
KCO1 211758Z 14008KT 18/M01 A298 RMK A01 T01821008  RH  028%=      5-min Rain = 0
KCO1 211759Z 16009KT 18/M01 A298 RMK A01 T01821007  RH  028%=      5-min Rain = 0
KCO1 211800Z 16006KT 18/M01 A2979 RMK A01 T01821007  RH  028%=      5-min Rain = 0
KCO1 211801Z 14006KT 18/M01 A2979 RMK A01 T01821007  RH  028%=      5-min Rain = 0
KCO1 211802Z 13009KT 18/M01 A2979 RMK A01 T01821005  RH  028%=      5-min Rain = 0
KCO1 211803Z 15007KT 18/M00 A2979 RMK A01 T01841004  RH  028%=      5-min Rain = 0
KCO1 211804Z 16006KT 19/M00 A2979 RMK A01 T01851004  RH  028%=      5-min Rain = 0
KCO1 211805Z 14009KT 19/M01 A2979 RMK A01 T01851005  RH  028%=      5-min Rain = 0
KCO1 211806Z 13009KT 18/M00 A2979 RMK A01 T01841003  RH  028%=      5-min Rain = 0
KCO1 211807Z 15008KT 19/M00 A2979 RMK A01 T01851002  RH  028%=      5-min Rain = 0
KCO1 211808Z 14007KT 19/M00 A2979 RMK A01 T01851003  RH  028%=      5-min Rain = 0
KCO1 211809Z 12007KT 19/M00 A2979 RMK A01 T01851003  RH  028%=      5-min Rain = 0
KCO1 211810Z 13005KT 19/00 A2979 RMK A01 T018600-0  RH  028%=      5-min Rain = 0
KCO1 211811Z 13007KT 19/00 A2979 RMK A01 T018900-0  RH  028%=      5-min Rain = 0
KCO1 211812Z 11007KT 19/00 A2979 RMK A01 T018900-0  RH  028%=      5-min Rain = 0
KCO1 211813Z 10007KT 19/00 A2979 RMK A01 T01890000  RH  028%=      5-min Rain = 0
KCO1 211814Z 12008KT 19/00 A2979 RMK A01 T01900000  RH  028%=      5-min Rain = 0
KCO1 211815Z 12006KT 19/M00 A2979 RMK A01 T01891003  RH  027%=      5-min Rain = 0
KCO1 211816Z 10006KT 19/00 A2979 RMK A01 T01880001  RH  028%=      5-min Rain = 0
KCO1 211817Z 10009KT 19/M00 A2979 RMK A01 T01891002  RH  028%=      5-min Rain = 0
KCO1 211818Z 09006KT 19/M00 A2979 RMK A01 T01861003  RH  028%=      5-min Rain = 0
KCO1 211819Z 10006KT 18/M01 A2979 RMK A01 T01841005  RH  028%=      5-min Rain = 0
KCO1 211820Z 08005KT 18/M00 A2979 RMK A01 T01811003  RH  029%=      5-min Rain = 0
KCO1 211821Z 08005KT 18/M00 A2979 RMK A01 T01831001  RH  029%=      5-min Rain = 0
KCO1 211822Z 11008KT 18/M00 A2979 RMK A01 T01831002  RH  029%=      5-min Rain = 0
KCO1 211823Z 12006KT 19/M00 A2979 RMK A01 T01851002  RH  028%=      5-min Rain = 0
KCO1 211824Z 12006KT 19/M00 A2979 RMK A01 T01851001  RH  028%=      5-min Rain = 0
KCO1 211825Z 12005KT 19/M00 A2979 RMK A01 T01881001  RH  028%=      5-min Rain = 0
KCO1 211826Z 14003KT 19/M01 A2978 RMK A01 T01871006  RH  027%=      5-min Rain = 0
KCO1 211827Z 08005KT 19/M00 A2978 RMK A01 T01861002  RH  028%=      5-min Rain = 0
KCO1 211828Z 07005KT 19/00 A2978 RMK A01 T01890003  RH  029%=      5-min Rain = 0
KCO1 211829Z 11008KT 19/00 A2978 RMK A01 T01930003  RH  028%=      5-min Rain = 0
KCO1 211830Z 12007KT 19/M00 A2978 RMK A01 T01931001  RH  027%=      5-min Rain = 0
KCO1 211831Z 12009KT 19/00 A2978 RMK A01 T01930000  RH  027%=      5-min Rain = 0
KCO1 211832Z 12006KT 19/M00 A2978 RMK A01 T01921002  RH  027%=      5-min Rain = 0
KCO1 211833Z 11008KT 19/M00 A2978 RMK A01 T01911002  RH  027%=      5-min Rain = 0
KCO1 211834Z 11006KT 19/M00 A2978 RMK A01 T01901001  RH  027%=      5-min Rain = 0
KCO1 211835Z 10006G11KT 19/00 A2978 RMK A01 T01910000  RH  028%=      5-min Rain = 0
KCO1 211836Z 09008KT 20/00 A2978 RMK A01 T01950002  RH  027%=      5-min Rain = 0
KCO1 211837Z 12008KT 20/00 A2977 RMK A01 T01960001  RH  027%=      5-min Rain = 0
KCO1 211838Z 11007KT 20/00 A2977 RMK A01 T019700-0  RH  027%=      5-min Rain = 0
KCO1 211839Z 10006KT 20/00 A2977 RMK A01 T019800-0  RH  027%=      5-min Rain = 0
KCO1 211840Z 11004KT 20/00 A2977 RMK A01 T01990001  RH  027%=      5-min Rain = 0
KCO1 211841Z 09004KT 20/M00 A2977 RMK A01 T01991003  RH  026%=      5-min Rain = 0
KCO1 211842Z 10004KT 20/M00 A2977 RMK A01 T01981002  RH  026%=      5-min Rain = 0
KCO1 211843Z 09007KT 20/M00 A2977 RMK A01 T01971003  RH  026%=      5-min Rain = 0
KCO1 211844Z 06007KT 20/M00 A2978 RMK A01 T01951003  RH  027%=      5-min Rain = 0
KCO1 211845Z 07007KT 19/M00 A2977 RMK A01 T01931002  RH  027%=      5-min Rain = 0
KCO1 211846Z 09006KT 19/M00 A2977 RMK A01 T01931001  RH  027%=      5-min Rain = 0
KCO1 211847Z 10004KT 19/M00 A2977 RMK A01 T01931001  RH  027%=      5-min Rain = 0
KCO1 211848Z 08007KT 19/00 A2977 RMK A01 T01940000  RH  027%=      5-min Rain = 0
KCO1 211849Z 06006KT 20/00 A2977 RMK A01 T01950001  RH  027%=      5-min Rain = 0
KCO1 211850Z 06009KT 20/00 A2977 RMK A01 T019600-0  RH  027%=      5-min Rain = 0
KCO1 211851Z 07009KT 19/M00 A2977 RMK A01 T01941001  RH  027%=      5-min Rain = 0
KCO1 211852Z 06007KT 20/00 A2977 RMK A01 T019500-0  RH  027%=      5-min Rain = 0
KCO1 211853Z 07009KT 20/00 A2977 RMK A01 T01960001  RH  027%=      5-min Rain = 0
KCO1 211854Z 06007KT 20/00 A2977 RMK A01 T019700-0  RH  026%=      5-min Rain = 0
KCO1 211855Z 06008KT 20/00 A2977 RMK A01 T01960000  RH  027%=      5-min Rain = 0
KCO1 211856Z 07009G14KT 20/M00 A2977 RMK A01 T01961001  RH  027%=      5-min Rain = 0
KCO1 211857Z 07007KT 20/00 A2976 RMK A01 T019600-0  RH  027%=      5-min Rain = 0
KCO1 211858Z 07006KT 20/00 A2976 RMK A01 T01980001  RH  027%=      5-min Rain = 0
KCO1 211859Z 05010KT 20/00 A2976 RMK A01 T01980000  RH  026%=      5-min Rain = 0
KCO1 211900Z 06009KT 20/00 A2976 RMK A01 T019800-0  RH  026%=      5-min Rain = 0
KCO1 211901Z 05008KT 20/M00 A2976 RMK A01 T01961001  RH  027%=      5-min Rain = 0
KCO1 211902Z 05011KT 20/00 A2976 RMK A01 T01950001  RH  027%=      5-min Rain = 0
KCO1 211903Z 05010KT 20/00 A2976 RMK A01 T019500-0  RH  027%=      5-min Rain = 0
KCO1 211904Z 05009KT 20/00 A2976 RMK A01 T01950001  RH  027%=      5-min Rain = 0
KCO1 211905Z 06006KT 20/01 A2976 RMK A01 T01980005  RH  028%=      5-min Rain = 0
KCO1 211906Z 09008G13KT 20/01 A2976 RMK A01 T02020005  RH  027%=      5-min Rain = 0
KCO1 211907Z 07010KT 21/00 A2976 RMK A01 T02050004  RH  026%=      5-min Rain = 0
KCO1 211908Z 08007KT 20/00 A2975 RMK A01 T020400-0  RH  025%=      5-min Rain = 0
KCO1 211909Z 08008KT 20/00 A2975 RMK A01 T020100-0  RH  026%=      5-min Rain = 0
KCO1 211910Z 08010KT 20/00 A2975 RMK A01 T02010001  RH  026%=      5-min Rain = 0
KCO1 211911Z 08010KT 20/00 A2975 RMK A01 T020100-0  RH  026%=      5-min Rain = 0
KCO1 211912Z 08007KT 20/M00 A2975 RMK A01 T01991001  RH  026%=      5-min Rain = 0
KCO1 211913Z 06006KT 20/00 A2975 RMK A01 T01990000  RH  026%=      5-min Rain = 0
KCO1 211914Z 06008KT 20/00 A2975 RMK A01 T02000002  RH  026%=      5-min Rain = 0
KCO1 211915Z 08010KT 20/00 A2975 RMK A01 T02020002  RH  026%=      5-min Rain = 0
KCO1 211916Z 07009KT 20/00 A2975 RMK A01 T02030000  RH  026%=      5-min Rain = 0
KCO1 211917Z 06010KT 20/00 A2975 RMK A01 T02010000  RH  026%=      5-min Rain = 0
KCO1 211918Z 06009KT 20/00 A2975 RMK A01 T02010001  RH  026%=      5-min Rain = 0
KCO1 211919Z 07008KT 20/00 A2974 RMK A01 T02020001  RH  026%=      5-min Rain = 0
KCO1 211920Z 05009KT 20/00 A2974 RMK A01 T02020001  RH  026%=      5-min Rain = 0
KCO1 211921Z 06010KT 20/00 A2974 RMK A01 T020300-0  RH  026%=      5-min Rain = 0
KCO1 211922Z 10008KT 20/00 A2974 RMK A01 T02030001  RH  026%=      5-min Rain = 0
KCO1 211923Z 08007KT 21/00 A2974 RMK A01 T02070001  RH  025%=      5-min Rain = 0
KCO1 211924Z 08008KT 21/M00 A2974 RMK A01 T02071002  RH  025%=      5-min Rain = 0
KCO1 211925Z 08006KT 21/M01 A2974 RMK A01 T02051005  RH  024%=      5-min Rain = 0
KCO1 211926Z 09008KT 20/M01 A2974 RMK A01 T02021005  RH  025%=      5-min Rain = 0
KCO1 211927Z 10006KT 20/M00 A2974 RMK A01 T02031002  RH  025%=      5-min Rain = 0
KCO1 211928Z 09007KT 21/M00 A2974 RMK A01 T02051002  RH  025%=      5-min Rain = 0
KCO1 211929Z 09007KT 21/00 A2974 RMK A01 T020500-0  RH  025%=      5-min Rain = 0
KCO1 211930Z 10008KT 21/M00 A2974 RMK A01 T02071002  RH  025%=      5-min Rain = 0
KCO1 211931Z 09006KT 21/M00 A2974 RMK A01 T02061003  RH  025%=      5-min Rain = 0
KCO1 211932Z 05005KT 21/M00 A2974 RMK A01 T02071001  RH  025%=      5-min Rain = 0
KCO1 211933Z 06004KT 21/00 A2973 RMK A01 T02090002  RH  025%=      5-min Rain = 0
KCO1 211934Z 06007KT 21/M00 A2973 RMK A01 T02101001  RH  024%=      5-min Rain = 0
KCO1 211935Z 06007KT 21/00 A2973 RMK A01 T02090000  RH  025%=      5-min Rain = 0
KCO1 211936Z 06007KT 21/M00 A2973 RMK A01 T02101001  RH  024%=      5-min Rain = 0
KCO1 211937Z 06010KT 21/M00 A2973 RMK A01 T02101001  RH  024%=      5-min Rain = 0
KCO1 211938Z 09009KT 21/M00 A2973 RMK A01 T02091001  RH  025%=      5-min Rain = 0
KCO1 211939Z 06010KT 21/M00 A2973 RMK A01 T02091001  RH  024%=      5-min Rain = 0
KCO1 211940Z 06008KT 21/M00 A2973 RMK A01 T02081002  RH  024%=      5-min Rain = 0
KCO1 211941Z 05011KT 21/M00 A2973 RMK A01 T02081001  RH  025%=      5-min Rain = 0
KCO1 211942Z 05010KT 21/M00 A2973 RMK A01 T02081002  RH  025%=      5-min Rain = 0
KCO1 211943Z 06008KT 21/M00 A2973 RMK A01 T02071002  RH  025%=      5-min Rain = 0
KCO1 211944Z 05008KT 21/M00 A2972 RMK A01 T02081001  RH  025%=      5-min Rain = 0
KCO1 211945Z 08010KT 21/00 A2972 RMK A01 T02100001  RH  025%=      5-min Rain = 0
KCO1 211946Z 08007KT 21/M00 A2972 RMK A01 T02121002  RH  024%=      5-min Rain = 0
KCO1 211947Z 05008KT 21/M00 A2972 RMK A01 T02111002  RH  024%=      5-min Rain = 0
KCO1 211948Z 06009KT 21/M00 A2972 RMK A01 T02111001  RH  024%=      5-min Rain = 0
KCO1 211949Z 06011KT 21/00 A2972 RMK A01 T02130000  RH  024%=      5-min Rain = 0
KCO1 211950Z 07009KT 21/00 A2972 RMK A01 T021400-0  RH  024%=      5-min Rain = 0
KCO1 211951Z 07009KT 22/00 A2972 RMK A01 T02160002  RH  024%=      5-min Rain = 0
KCO1 211952Z 07012G18KT 22/00 A2972 RMK A01 T02170001  RH  024%=      5-min Rain = 0
KCO1 211953Z 07012KT 22/M00 A2972 RMK A01 T02181001  RH  023%=      5-min Rain = 0
KCO1 211954Z 06010KT 22/M00 A2972 RMK A01 T02161003  RH  023%=      5-min Rain = 0
KCO1 211955Z 06010KT 22/M00 A2972 RMK A01 T02151002  RH  023%=      5-min Rain = 0
KCO1 211956Z 06010KT 21/M00 A2971 RMK A01 T02141001  RH  024%=      5-min Rain = 0
KCO1 211957Z 07010G15KT 22/00 A2971 RMK A01 T02170003  RH  024%=      5-min Rain = 0
KCO1 211958Z 08013KT 22/00 A2971 RMK A01 T02200003  RH  024%=      5-min Rain = 0
KCO1 211959Z 07010KT 22/M00 A2971 RMK A01 T02201002  RH  023%=      5-min Rain = 0
KCO1 212000Z 06009KT 22/M00 A2971 RMK A01 T02181001  RH  023%=      5-min Rain = 0
KCO1 212001Z 05012KT 22/00 A2971 RMK A01 T02180000  RH  024%=      5-min Rain = 0
KCO1 212002Z 08013KT 22/00 A2971 RMK A01 T02180000  RH  023%=      5-min Rain = 0
KCO1 212003Z 08011KT 22/00 A2971 RMK A01 T021800-0  RH  023%=      5-min Rain = 0
KCO1 212004Z 08011KT 22/00 A2971 RMK A01 T021900-0  RH  023%=      5-min Rain = 0
KCO1 212005Z 08010KT 22/M00 A2971 RMK A01 T02191002  RH  023%=      5-min Rain = 0
KCO1 212006Z 06011KT 22/00 A2971 RMK A01 T02180000  RH  023%=      5-min Rain = 0
KCO1 212007Z 07011KT 22/00 A2971 RMK A01 T02200001  RH  023%=      5-min Rain = 0
KCO1 212008Z 08013KT 22/00 A2971 RMK A01 T02220000  RH  023%=      5-min Rain = 0
KCO1 212009Z 06012KT 22/M00 A2971 RMK A01 T02201001  RH  023%=      5-min Rain = 0
KCO1 212010Z 06013KT 22/M00 A2971 RMK A01 T02181001  RH  023%=      5-min Rain = 0
KCO1 212011Z 06013KT 22/00 A2971 RMK A01 T021700-0  RH  023%=      5-min Rain = 0
KCO1 212012Z 06011KT 22/00 A2971 RMK A01 T02190001  RH  023%=      5-min Rain = 0
KCO1 212013Z 07014KT 22/00 A2971 RMK A01 T02220000  RH  023%=      5-min Rain = 0
KCO1 212014Z 07011KT 22/M00 A297 RMK A01 T02201002  RH  023%=      5-min Rain = 0
KCO1 212015Z 06011KT 22/00 A297 RMK A01 T021800-0  RH  023%=      5-min Rain = 0
KCO1 212016Z 07011KT 22/00 A297 RMK A01 T02190003  RH  024%=      5-min Rain = 0
KCO1 212017Z 06013KT 22/00 A297 RMK A01 T022100-0  RH  023%=      5-min Rain = 0
KCO1 212018Z 07015KT 22/00 A297 RMK A01 T022000-0  RH  023%=      5-min Rain = 0
KCO1 212019Z 07013KT 22/00 A297 RMK A01 T02190000  RH  023%=      5-min Rain = 0
KCO1 212020Z 07014KT 22/00 A297 RMK A01 T02190001  RH  023%=      5-min Rain = 0
KCO1 212021Z 07014KT 22/00 A297 RMK A01 T02190001  RH  023%=      5-min Rain = 0
KCO1 212022Z 07015KT 22/00 A297 RMK A01 T02190000  RH  023%=      5-min Rain = 0
KCO1 212023Z 07014KT 22/00 A297 RMK A01 T02190001  RH  023%=      5-min Rain = 0
KCO1 212024Z 07014KT 22/00 A297 RMK A01 T02190000  RH  023%=      5-min Rain = 0
KCO1 212025Z 06013KT 22/M00 A2969 RMK A01 T02181001  RH  023%=      5-min Rain = 0
KCO1 212026Z 06014KT 22/00 A297 RMK A01 T02180001  RH  023%=      5-min Rain = 0
KCO1 212027Z 06012KT 22/00 A2969 RMK A01 T02190002  RH  024%=      5-min Rain = 0
KCO1 212028Z 07012KT 22/00 A297 RMK A01 T02220001  RH  023%=      5-min Rain = 0
KCO1 212029Z 07015KT 22/M00 A297 RMK A01 T02221001  RH  023%=      5-min Rain = 0
KCO1 212030Z 08013KT 22/00 A2969 RMK A01 T02220002  RH  023%=      5-min Rain = 0
KCO1 212031Z 07015KT 22/00 A297 RMK A01 T02230000  RH  023%=      5-min Rain = 0
KCO1 212032Z 07012KT 22/M00 A2969 RMK A01 T02221002  RH  022%=      5-min Rain = 0
KCO1 212033Z 07013KT 22/00 A2969 RMK A01 T02240004  RH  023%=      5-min Rain = 0
KCO1 212034Z 07015KT 23/00 A2969 RMK A01 T02270004  RH  023%=      5-min Rain = 0
KCO1 212035Z 07014KT 23/M00 A2969 RMK A01 T02271001  RH  022%=      5-min Rain = 0
KCO1 212036Z 07013KT 23/00 A2969 RMK A01 T02250001  RH  023%=      5-min Rain = 0
KCO1 212037Z 08013KT 23/00 A2969 RMK A01 T02250003  RH  023%=      5-min Rain = 0
KCO1 212038Z 07013KT 23/00 A2969 RMK A01 T02260002  RH  022%=      5-min Rain = 0
KCO1 212039Z 07011KT 23/00 A2969 RMK A01 T02250001  RH  023%=      5-min Rain = 0
KCO1 212040Z 08014KT 23/00 A2969 RMK A01 T02250001  RH  023%=      5-min Rain = 0
KCO1 212041Z 07015KT 22/00 A2969 RMK A01 T02240001  RH  023%=      5-min Rain = 0
KCO1 212042Z 06013KT 22/00 A2969 RMK A01 T02230003  RH  023%=      5-min Rain = 0
KCO1 212043Z 06013KT 22/00 A2969 RMK A01 T02240003  RH  023%=      5-min Rain = 0
KCO1 212044Z 07016KT 22/00 A2969 RMK A01 T02240002  RH  023%=      5-min Rain = 0
KCO1 212045Z 07016KT 22/00 A2969 RMK A01 T02230001  RH  023%=      5-min Rain = 0
KCO1 212046Z 07015KT 22/00 A2969 RMK A01 T02220000  RH  023%=      5-min Rain = 0
KCO1 212047Z 07016KT 22/00 A2968 RMK A01 T02220002  RH  023%=      5-min Rain = 0
KCO1 212048Z 06014KT 22/00 A2968 RMK A01 T02220003  RH  023%=      5-min Rain = 0
KCO1 212049Z 07016KT 22/00 A2968 RMK A01 T02220002  RH  023%=      5-min Rain = 0
KCO1 212050Z 06013G18KT 22/00 A2968 RMK A01 T02220002  RH  023%=      5-min Rain = 0
KCO1 212051Z 06014KT 22/01 A2968 RMK A01 T02220005  RH  024%=      5-min Rain = 0
KCO1 212052Z 06016KT 22/00 A2968 RMK A01 T02230003  RH  023%=      5-min Rain = 0
KCO1 212053Z 06012KT 22/00 A2968 RMK A01 T02220001  RH  023%=      5-min Rain = 0
KCO1 212054Z 07012KT 22/00 A2968 RMK A01 T02230004  RH  023%=      5-min Rain = 0
KCO1 212055Z 07013KT 23/00 A2968 RMK A01 T02260004  RH  023%=      5-min Rain = 0
KCO1 212056Z 07012KT 23/00 A2968 RMK A01 T02260001  RH  022%=      5-min Rain = 0
KCO1 212057Z 08012KT 23/00 A2968 RMK A01 T02250001  RH  023%=      5-min Rain = 0
KCO1 212058Z 08011KT 23/00 A2968 RMK A01 T02250003  RH  023%=      5-min Rain = 0
KCO1 212059Z 09012KT 23/00 A2968 RMK A01 T02250004  RH  023%=      5-min Rain = 0
KCO1 212100Z 09011KT 23/00 A2968 RMK A01 T02270004  RH  023%=      5-min Rain = 0
KCO1 212101Z 09013KT 23/00 A2968 RMK A01 T02290001  RH  022%=      5-min Rain = 0
KCO1 212102Z 07013KT 23/M00 A2968 RMK A01 T02251002  RH  022%=      5-min Rain = 0
KCO1 212103Z 08013KT 22/M01 A2968 RMK A01 T02241005  RH  022%=      5-min Rain = 0
KCO1 212104Z 07012KT 22/M00 A2968 RMK A01 T02241002  RH  022%=      5-min Rain = 0
KCO1 212105Z 08014KT 23/M00 A2968 RMK A01 T02261001  RH  022%=      5-min Rain = 0
KCO1 212106Z 08012KT 23/M00 A2968 RMK A01 T02281004  RH  021%=      5-min Rain = 0
KCO1 212107Z 06013KT 23/M01 A2967 RMK A01 T02301011  RH  020%=      5-min Rain = 0
KCO1 212108Z 06015KT 23/M01 A2967 RMK A01 T02291005  RH  021%=      5-min Rain = 0
KCO1 212109Z 06014KT 23/M00 A2968 RMK A01 T02281001  RH  022%=      5-min Rain = 0
KCO1 212110Z 06014KT 23/00 A2968 RMK A01 T02270000  RH  022%=      5-min Rain = 0
KCO1 212111Z 05014KT 23/00 A2968 RMK A01 T02260001  RH  023%=      5-min Rain = 0
KCO1 212112Z 05012KT 23/00 A2967 RMK A01 T02250001  RH  023%=      5-min Rain = 0
KCO1 212113Z 06013KT 23/00 A2967 RMK A01 T02270002  RH  023%=      5-min Rain = 0
KCO1 212114Z 07012KT 23/00 A2967 RMK A01 T02280001  RH  022%=      5-min Rain = 0
KCO1 212115Z 06014KT 23/00 A2967 RMK A01 T02300003  RH  022%=      5-min Rain = 0
KCO1 212116Z 05012KT 23/00 A2967 RMK A01 T02300001  RH  022%=      5-min Rain = 0
KCO1 212117Z 04013KT 23/00 A2967 RMK A01 T02280000  RH  022%=      5-min Rain = 0
KCO1 212118Z 06014KT 23/00 A2967 RMK A01 T022700-0  RH  022%=      5-min Rain = 0
KCO1 212119Z 07010KT 23/M00 A2967 RMK A01 T02271002  RH  022%=      5-min Rain = 0
KCO1 212120Z 06015KT 23/00 A2967 RMK A01 T02280000  RH  022%=      5-min Rain = 0
KCO1 212121Z 08012KT 23/M00 A2966 RMK A01 T02291002  RH  022%=      5-min Rain = 0
KCO1 212122Z 07014KT 23/M00 A2966 RMK A01 T02321004  RH  021%=      5-min Rain = 0
KCO1 212123Z 08012KT 23/M00 A2966 RMK A01 T02321004  RH  021%=      5-min Rain = 0
KCO1 212124Z 08014KT 23/M00 A2966 RMK A01 T02331001  RH  021%=      5-min Rain = 0
KCO1 212125Z 08014KT 23/M00 A2966 RMK A01 T02331003  RH  021%=      5-min Rain = 0
KCO1 212126Z 06016KT 23/M00 A2966 RMK A01 T02311001  RH  021%=      5-min Rain = 0
KCO1 212127Z 05017KT 23/M00 A2966 RMK A01 T02291001  RH  022%=      5-min Rain = 0
KCO1 212128Z 06017KT 23/M00 A2966 RMK A01 T02271002  RH  022%=      5-min Rain = 0
KCO1 212129Z 07014KT 23/M00 A2966 RMK A01 T02271001  RH  022%=      5-min Rain = 0
KCO1 212130Z 07013KT 23/M00 A2966 RMK A01 T02271001  RH  022%=      5-min Rain = 0
KCO1 212131Z 06014KT 23/00 A2966 RMK A01 T02290003  RH  022%=      5-min Rain = 0
KCO1 212132Z 06018KT 23/00 A2966 RMK A01 T02290000  RH  022%=      5-min Rain = 0
KCO1 212133Z 06015KT 23/M00 A2966 RMK A01 T02261002  RH  022%=      5-min Rain = 0
KCO1 212134Z 06015KT 23/M00 A2966 RMK A01 T02251003  RH  022%=      5-min Rain = 0
KCO1 212135Z 06015KT 22/M00 A2966 RMK A01 T02241002  RH  022%=      5-min Rain = 0
KCO1 212136Z 05015KT 23/M00 A2966 RMK A01 T02261003  RH  022%=      5-min Rain = 0
KCO1 212137Z 05016KT 23/M00 A2966 RMK A01 T02271003  RH  022%=      5-min Rain = 0
KCO1 212138Z 04015KT 23/M01 A2966 RMK A01 T02261005  RH  021%=      5-min Rain = 0
KCO1 212139Z 04016KT 22/M00 A2965 RMK A01 T02241003  RH  022%=      5-min Rain = 0
KCO1 212140Z 06014KT 23/M00 A2965 RMK A01 T02261002  RH  022%=      5-min Rain = 0
KCO1 212141Z 07016KT 23/M00 A2965 RMK A01 T02291002  RH  022%=      5-min Rain = 0
KCO1 212142Z 05013KT 23/M00 A2965 RMK A01 T02321003  RH  021%=      5-min Rain = 0
KCO1 212143Z 05012KT 23/M01 A2965 RMK A01 T02341005  RH  020%=      5-min Rain = 0
KCO1 212144Z 05012KT 23/M01 A2965 RMK A01 T02341009  RH  020%=      5-min Rain = 0
KCO1 212145Z 05013KT 23/M01 A2966 RMK A01 T02341006  RH  020%=      5-min Rain = 0
KCO1 212146Z 06014KT 23/M01 A2966 RMK A01 T02321007  RH  020%=      5-min Rain = 0
KCO1 212147Z 05013G18KT 23/M01 A2965 RMK A01 T02311005  RH  021%=      5-min Rain = 0
KCO1 212148Z 04013G18KT 23/M00 A2965 RMK A01 T02301004  RH  021%=      5-min Rain = 0
KCO1 212149Z 07008KT 23/M01 A2965 RMK A01 T02291006  RH  021%=      5-min Rain = 0
KCO1 212150Z 12010G15KT 23/M02 A2965 RMK A01 T02311023  RH  018%=      5-min Rain = 0
KCO1 212151Z 06005KT 23/M03 A2965 RMK A01 T02331030  RH  017%=      5-min Rain = 0
KCO1 212152Z 06012KT 23/M04 A2965 RMK A01 T02341038  RH  016%=      5-min Rain = 0
KCO1 212153Z 06012G18KT 24/M04 A2964 RMK A01 T02361043  RH  015%=      5-min Rain = 0
KCO1 212154Z 07016G21KT 24/M03 A2965 RMK A01 T02401026  RH  017%=      5-min Rain = 0
KCO1 212155Z 07010G20KT 24/M03 A2965 RMK A01 T02391028  RH  017%=      5-min Rain = 0
KCO1 212156Z 10008G15KT 24/M02 A2964 RMK A01 T02371023  RH  018%=      5-min Rain = 0
KCO1 212157Z 18009KT 24/M03 A2964 RMK A01 T02381033  RH  016%=      5-min Rain = 0
KCO1 212158Z 32006G11KT 24/M04 A2964 RMK A01 T02381039  RH  016%=      5-min Rain = 0
KCO1 212159Z 34004G9KT 24/M04 A2964 RMK A01 T02351039  RH  016%=      5-min Rain = 0
KCO1 212200Z 08005KT 24/M03 A2964 RMK A01 T02361033  RH  016%=      5-min Rain = 0
KCO1 212201Z 20008G13KT 24/M03 A2965 RMK A01 T02391033  RH  016%=      5-min Rain = 0
KCO1 212202Z 21011KT 24/M04 A2965 RMK A01 T02401037  RH  016%=      5-min Rain = 0
KCO1 212203Z 24011KT 24/M03 A2965 RMK A01 T02391032  RH  016%=      5-min Rain = 0
KCO1 212204Z 27009KT 24/M03 A2965 RMK A01 T02401032  RH  016%=      5-min Rain = 0
KCO1 212205Z 23005KT 24/M04 A2965 RMK A01 T02391035  RH  016%=      5-min Rain = 0
KCO1 212206Z 23013KT 24/M04 A2965 RMK A01 T02381038  RH  016%=      5-min Rain = 0
KCO1 212207Z 20014KT 24/M05 A2965 RMK A01 T02391050  RH  014%=      5-min Rain = 0
KCO1 212208Z 20015KT 24/M06 A2965 RMK A01 T02431057  RH  013%=      5-min Rain = 0
KCO1 212209Z 19015G21KT 24/M06 A2965 RMK A01 T02441059  RH  013%=      5-min Rain = 0
KCO1 212210Z 18018KT 25/M06 A2964 RMK A01 T02461058  RH  013%=      5-min Rain = 0
KCO1 212211Z 20017KT 25/M06 A2964 RMK A01 T02471055  RH  013%=      5-min Rain = 0
KCO1 212212Z 26013KT 25/M04 A2965 RMK A01 T02481040  RH  015%=      5-min Rain = 0
KCO1 212213Z 27007G12KT 25/M04 A2965 RMK A01 T02461038  RH  015%=      5-min Rain = 0
KCO1 212214Z 23004KT 24/M03 A2965 RMK A01 T02431034  RH  016%=      5-min Rain = 0
KCO1 212215Z 15004KT 24/M04 A2965 RMK A01 T02431038  RH  015%=      5-min Rain = 0
KCO1 212216Z 14003KT 24/M04 A2965 RMK A01 T02431042  RH  015%=      5-min Rain = 0
KCO1 212217Z 21002KT 24/M04 A2965 RMK A01 T02421042  RH  015%=      5-min Rain = 0
KCO1 212218Z 26006KT 24/M04 A2965 RMK A01 T02431040  RH  015%=      5-min Rain = 0
KCO1 212219Z 24006KT 25/M04 A2965 RMK A01 T02451042  RH  015%=      5-min Rain = 0
KCO1 212220Z 23002KT 25/M05 A2965 RMK A01 T02461046  RH  014%=      5-min Rain = 0
KCO1 212221Z 22014KT 25/M05 A2965 RMK A01 T02461052  RH  013%=      5-min Rain = 0
KCO1 212222Z 24014KT 25/M06 A2965 RMK A01 T02461056  RH  013%=      5-min Rain = 0
KCO1 212223Z 24011KT 25/M06 A2965 RMK A01 T02481058  RH  013%=      5-min Rain = 0
KCO1 212224Z 23013KT 25/M06 A2965 RMK A01 T02501061  RH  012%=      5-min Rain = 0
KCO1 212225Z 22016KT 25/M06 A2965 RMK A01 T02501064  RH  012%=      5-min Rain = 0
KCO1 212226Z 22014KT 25/M07 A2965 RMK A01 T02481066  RH  012%=      5-min Rain = 0
KCO1 212227Z 22012KT 25/M06 A2965 RMK A01 T02491063  RH  012%=      5-min Rain = 0
KCO1 212228Z 22012KT 25/M06 A2965 RMK A01 T02501061  RH  012%=      5-min Rain = 0
KCO1 212229Z 23012KT 25/M06 A2965 RMK A01 T02521064  RH  012%=      5-min Rain = 0
KCO1 212230Z 24011KT 25/M07 A2965 RMK A01 T02511067  RH  012%=      5-min Rain = 0
KCO1 212231Z 23009KT 25/M07 A2965 RMK A01 T02491065  RH  012%=      5-min Rain = 0
KCO1 212232Z 23012G17KT 25/M06 A2965 RMK A01 T02501064  RH  012%=      5-min Rain = 0
KCO1 212233Z 22015KT 25/M07 A2965 RMK A01 T02481067  RH  012%=      5-min Rain = 0
KCO1 212234Z 23012KT 25/M07 A2965 RMK A01 T02471067  RH  012%=      5-min Rain = 0
KCO1 212235Z 24013KT 25/M07 A2965 RMK A01 T02481067  RH  012%=      5-min Rain = 0
KCO1 212236Z 23012KT 25/M07 A2965 RMK A01 T02481070  RH  012%=      5-min Rain = 0
KCO1 212237Z 21013KT 25/M07 A2965 RMK A01 T02481066  RH  012%=      5-min Rain = 0
KCO1 212238Z 20012KT 25/M06 A2965 RMK A01 T02481064  RH  012%=      5-min Rain = 0
KCO1 212239Z 19013KT 25/M07 A2965 RMK A01 T02481066  RH  012%=      5-min Rain = 0
KCO1 212240Z 20010KT 25/M07 A2965 RMK A01 T02471066  RH  012%=      5-min Rain = 0
KCO1 212241Z 20013KT 25/M06 A2965 RMK A01 T02461064  RH  012%=      5-min Rain = 0
KCO1 212242Z 21014KT 25/M07 A2965 RMK A01 T02471066  RH  012%=      5-min Rain = 0
KCO1 212243Z 21014KT 25/M07 A2965 RMK A01 T02471069  RH  012%=      5-min Rain = 0
KCO1 212244Z 21014KT 25/M07 A2965 RMK A01 T02461068  RH  012%=      5-min Rain = 0
KCO1 212245Z 21016G21KT 25/M07 A2965 RMK A01 T02471065  RH  012%=      5-min Rain = 0
KCO1 212246Z 21019KT 25/M07 A2965 RMK A01 T02481066  RH  012%=      5-min Rain = 0
KCO1 212247Z 21015KT 25/M07 A2965 RMK A01 T02481066  RH  012%=      5-min Rain = 0
KCO1 212248Z 20014KT 25/M07 A2965 RMK A01 T02491066  RH  012%=      5-min Rain = 0
KCO1 212249Z 20017KT 25/M07 A2965 RMK A01 T02491067  RH  012%=      5-min Rain = 0
KCO1 212250Z 20018KT 25/M07 A2965 RMK A01 T02471070  RH  012%=      5-min Rain = 0
KCO1 212251Z 19018KT 25/M07 A2965 RMK A01 T02461068  RH  012%=      5-min Rain = 0
KCO1 212252Z 20018G23KT 25/M07 A2965 RMK A01 T02461067  RH  012%=      5-min Rain = 0
KCO1 212253Z 21014KT 25/M07 A2965 RMK A01 T02461066  RH  012%=      5-min Rain = 0
KCO1 212254Z 21014KT 25/M06 A2965 RMK A01 T02461063  RH  012%=      5-min Rain = 0
KCO1 212255Z 22016KT 25/M06 A2965 RMK A01 T02471063  RH  012%=      5-min Rain = 0
KCO1 212256Z 21017G22KT 25/M07 A2965 RMK A01 T02471065  RH  012%=      5-min Rain = 0
KCO1 212257Z 21015G21KT 25/M06 A2965 RMK A01 T02461064  RH  012%=      5-min Rain = 0
KCO1 212258Z 21015G20KT 25/M06 A2966 RMK A01 T02461064  RH  012%=      5-min Rain = 0
KCO1 212259Z 22016KT 25/M07 A2966 RMK A01 T02451065  RH  012%=      5-min Rain = 0
KCO1 212300Z 22013KT 25/M07 A2966 RMK A01 T02451065  RH  012%=      5-min Rain = 0
KCO1 212301Z 22012KT 25/M07 A2966 RMK A01 T02451065  RH  012%=      5-min Rain = 0
KCO1 212302Z 21017KT 25/M06 A2966 RMK A01 T02451064  RH  012%=      5-min Rain = 0
KCO1 212303Z 21014KT 25/M07 A2966 RMK A01 T02451067  RH  012%=      5-min Rain = 0
KCO1 212304Z 20014KT 24/M07 A2966 RMK A01 T02441067  RH  012%=      5-min Rain = 0
KCO1 212305Z 21016KT 24/M07 A2966 RMK A01 T02441068  RH  012%=      5-min Rain = 0
KCO1 212306Z 21014G19KT 24/M07 A2966 RMK A01 T02441068  RH  012%=      5-min Rain = 0
KCO1 212307Z 22011KT 24/M07 A2966 RMK A01 T02441068  RH  012%=      5-min Rain = 0
KCO1 212308Z 23012KT 25/M07 A2966 RMK A01 T02451066  RH  012%=      5-min Rain = 0
KCO1 212309Z 22018KT 25/M07 A2966 RMK A01 T02461068  RH  012%=      5-min Rain = 0
KCO1 212310Z 21015KT 25/M07 A2966 RMK A01 T02461069  RH  012%=      5-min Rain = 0
KCO1 212311Z 22017KT 25/M07 A2966 RMK A01 T02451068  RH  012%=      5-min Rain = 0
KCO1 212312Z 21015KT 24/M07 A2966 RMK A01 T02441068  RH  012%=      5-min Rain = 0
KCO1 212313Z 21018KT 24/M07 A2966 RMK A01 T02441067  RH  012%=      5-min Rain = 0
KCO1 212314Z 21015KT 24/M07 A2966 RMK A01 T02431068  RH  012%=      5-min Rain = 0
KCO1 212315Z 21013KT 24/M07 A2966 RMK A01 T02431067  RH  012%=      5-min Rain = 0
KCO1 212316Z 21014KT 24/M07 A2966 RMK A01 T02421068  RH  012%=      5-min Rain = 0
KCO1 212317Z 21013KT 24/M07 A2966 RMK A01 T02421068  RH  012%=      5-min Rain = 0
KCO1 212318Z 21014KT 24/M07 A2966 RMK A01 T02421067  RH  012%=      5-min Rain = 0
KCO1 212319Z 21011KT 24/M07 A2966 RMK A01 T02421066  RH  012%=      5-min Rain = 0
KCO1 212320Z 21010KT 24/M06 A2966 RMK A01 T02431064  RH  013%=      5-min Rain = 0
KCO1 212321Z 22013KT 24/M06 A2966 RMK A01 T02441064  RH  012%=      5-min Rain = 0
KCO1 212322Z 21015KT 24/M07 A2966 RMK A01 T02441065  RH  012%=      5-min Rain = 0
KCO1 212323Z 20016KT 24/M06 A2966 RMK A01 T02431064  RH  012%=      5-min Rain = 0
KCO1 212324Z 20016KT 24/M07 A2966 RMK A01 T02421065  RH  012%=      5-min Rain = 0
KCO1 212325Z 20016KT 24/M06 A2966 RMK A01 T02421064  RH  013%=      5-min Rain = 0
KCO1 212326Z 20015KT 24/M06 A2966 RMK A01 T02411064  RH  013%=      5-min Rain = 0
KCO1 212327Z 21016KT 24/M07 A2966 RMK A01 T02411065  RH  013%=      5-min Rain = 0
KCO1 212328Z 21014KT 24/M07 A2966 RMK A01 T02411065  RH  013%=      5-min Rain = 0
KCO1 212329Z 21014KT 24/M07 A2966 RMK A01 T02401065  RH  013%=      5-min Rain = 0
KCO1 212330Z 20011KT 24/M06 A2966 RMK A01 T02411063  RH  013%=      5-min Rain = 0
KCO1 212331Z 19012KT 24/M06 A2966 RMK A01 T02411062  RH  013%=      5-min Rain = 0
KCO1 212332Z 20016G22KT 24/M06 A2966 RMK A01 T02411061  RH  013%=      5-min Rain = 0
KCO1 212333Z 22014KT 24/M06 A2966 RMK A01 T02411061  RH  013%=      5-min Rain = 0
KCO1 212334Z 22014KT 24/M06 A2966 RMK A01 T02411062  RH  013%=      5-min Rain = 0
KCO1 212335Z 22012KT 24/M06 A2966 RMK A01 T02411062  RH  013%=      5-min Rain = 0
KCO1 212336Z 22010KT 24/M06 A2966 RMK A01 T02411061  RH  013%=      5-min Rain = 0
KCO1 212337Z 21009KT 24/M06 A2966 RMK A01 T02411060  RH  013%=      5-min Rain = 0
KCO1 212338Z 22014KT 24/M06 A2966 RMK A01 T02411059  RH  013%=      5-min Rain = 0
KCO1 212339Z 21011KT 24/M06 A2966 RMK A01 T02421059  RH  013%=      5-min Rain = 0
KCO1 212340Z 21010KT 24/M06 A2966 RMK A01 T02411059  RH  013%=      5-min Rain = 0
KCO1 212341Z 22014KT 24/M06 A2966 RMK A01 T02411061  RH  013%=      5-min Rain = 0
KCO1 212342Z 21013KT 24/M06 A2966 RMK A01 T02401063  RH  013%=      5-min Rain = 0
KCO1 212343Z 21012KT 24/M06 A2966 RMK A01 T02391063  RH  013%=      5-min Rain = 0
KCO1 212344Z 21010KT 24/M06 A2966 RMK A01 T02391064  RH  013%=      5-min Rain = 0
KCO1 212345Z 20009KT 24/M06 A2966 RMK A01 T02391062  RH  013%=      5-min Rain = 0
KCO1 212346Z 20012KT 24/M06 A2966 RMK A01 T02391062  RH  013%=      5-min Rain = 0
KCO1 212347Z 20011KT 24/M06 A2966 RMK A01 T02391062  RH  013%=      5-min Rain = 0
KCO1 212348Z 19013KT 24/M06 A2966 RMK A01 T02391062  RH  013%=      5-min Rain = 0
KCO1 212349Z 19012KT 24/M06 A2966 RMK A01 T02381063  RH  013%=      5-min Rain = 0
KCO1 212350Z 20009KT 24/M06 A2967 RMK A01 T02381061  RH  013%=      5-min Rain = 0
KCO1 212351Z 19011KT 24/M06 A2967 RMK A01 T02381060  RH  013%=      5-min Rain = 0
KCO1 212352Z 19013KT 24/M06 A2967 RMK A01 T02381061  RH  013%=      5-min Rain = 0
KCO1 212353Z 19013KT 24/M06 A2967 RMK A01 T02371063  RH  013%=      5-min Rain = 0
KCO1 212354Z 19014KT 24/M06 A2967 RMK A01 T02361063  RH  013%=      5-min Rain = 0
KCO1 212355Z 20013KT 24/M06 A2967 RMK A01 T02361063  RH  013%=      5-min Rain = 0
KCO1 212356Z 20010KT 24/M06 A2967 RMK A01 T02361062  RH  013%=      5-min Rain = 0
KCO1 212357Z 19013KT 24/M06 A2967 RMK A01 T02361062  RH  013%=      5-min Rain = 0
KCO1 212358Z 19012KT 24/M06 A2967 RMK A01 T02351063  RH  013%=      5-min Rain = 0
KCO1 212359Z 19016KT 24/M06 A2967 RMK A01 T02351062  RH  013%=      5-min Rain = 0
KCO1 220000Z 19015KT 24/M06 A2967 RMK A01 T02351063  RH  013%=      5-min Rain = 0
KCO1 220001Z 20014KT 23/M06 A2967 RMK A01 T02341063  RH  013%=      5-min Rain = 0
KCO1 220002Z 21013KT 23/M06 A2967 RMK A01 T02341063  RH  013%=      5-min Rain = 0
KCO1 220003Z 21013KT 23/M06 A2967 RMK A01 T02341063  RH  013%=      5-min Rain = 0
KCO1 220004Z 21011KT 23/M06 A2967 RMK A01 T02341064  RH  013%=      5-min Rain = 0
KCO1 220005Z 21011KT 23/M06 A2967 RMK A01 T02341063  RH  013%=      5-min Rain = 0
KCO1 220006Z 21009KT 23/M06 A2967 RMK A01 T02331063  RH  013%=      5-min Rain = 0
KCO1 220007Z 20010KT 23/M06 A2967 RMK A01 T02321062  RH  014%=      5-min Rain = 0
KCO1 220008Z 20012KT 23/M06 A2967 RMK A01 T02301063  RH  014%=      5-min Rain = 0
KCO1 220009Z 20009KT 23/M06 A2967 RMK A01 T02291063  RH  014%=      5-min Rain = 0
KCO1 220010Z 19008KT 23/M06 A2967 RMK A01 T02281062  RH  014%=      5-min Rain = 0
KCO1 220011Z 20010KT 23/M06 A2967 RMK A01 T02261061  RH  014%=      5-min Rain = 0
KCO1 220012Z 20015KT 23/M06 A2967 RMK A01 T02251061  RH  014%=      5-min Rain = 0
KCO1 220013Z 21014KT 23/M06 A2967 RMK A01 T02261064  RH  014%=      5-min Rain = 0
KCO1 220014Z 21012KT 23/M06 A2967 RMK A01 T02271063  RH  014%=      5-min Rain = 0
KCO1 220015Z 21011KT 23/M06 A2967 RMK A01 T02271064  RH  014%=      5-min Rain = 0
KCO1 220016Z 22010KT 23/M07 A2967 RMK A01 T02281065  RH  014%=      5-min Rain = 0
KCO1 220017Z 22010KT 23/M06 A2968 RMK A01 T02281064  RH  014%=      5-min Rain = 0
KCO1 220018Z 21009KT 23/M06 A2968 RMK A01 T02271064  RH  014%=      5-min Rain = 0
KCO1 220019Z 21009KT 23/M06 A2968 RMK A01 T02261064  RH  014%=      5-min Rain = 0
KCO1 220020Z 21010KT 23/M06 A2968 RMK A01 T02251064  RH  014%=      5-min Rain = 0
KCO1 220021Z 21012KT 22/M06 A2967 RMK A01 T02241064  RH  014%=      5-min Rain = 0
KCO1 220022Z 21011KT 22/M07 A2968 RMK A01 T02241065  RH  014%=      5-min Rain = 0
KCO1 220023Z 21011KT 22/M07 A2968 RMK A01 T02241065  RH  014%=      5-min Rain = 0
KCO1 220024Z 21009KT 22/M07 A2968 RMK A01 T02231065  RH  014%=      5-min Rain = 0
KCO1 220025Z 21010KT 22/M07 A2968 RMK A01 T02231065  RH  014%=      5-min Rain = 0
KCO1 220026Z 22010KT 22/M07 A2968 RMK A01 T02221066  RH  014%=      5-min Rain = 0
KCO1 220027Z 21011KT 22/M07 A2968 RMK A01 T02221065  RH  014%=      5-min Rain = 0
KCO1 220028Z 22011KT 22/M07 A2968 RMK A01 T02211065  RH  014%=      5-min Rain = 0
KCO1 220029Z 21009KT 22/M07 A2968 RMK A01 T02211066  RH  014%=      5-min Rain = 0
KCO1 220030Z 21011KT 22/M07 A2968 RMK A01 T02191066  RH  014%=      5-min Rain = 0
KCO1 220031Z 21012KT 22/M07 A2968 RMK A01 T02191066  RH  014%=      5-min Rain = 0
KCO1 220032Z 21011KT 22/M07 A2968 RMK A01 T02191066  RH  014%=      5-min Rain = 0
KCO1 220033Z 20009KT 22/M07 A2968 RMK A01 T02191066  RH  014%=      5-min Rain = 0
KCO1 220034Z 19010KT 22/M07 A2969 RMK A01 T02191065  RH  014%=      5-min Rain = 0
KCO1 220035Z 18010KT 22/M07 A2969 RMK A01 T02161065  RH  015%=      5-min Rain = 0
KCO1 220036Z 18010KT 21/M07 A2969 RMK A01 T02141065  RH  015%=      5-min Rain = 0
KCO1 220037Z 18010KT 21/M06 A2969 RMK A01 T02111063  RH  015%=      5-min Rain = 0
KCO1 220038Z 18013KT 21/M06 A2969 RMK A01 T02091057  RH  016%=      5-min Rain = 0
KCO1 220039Z 18013KT 21/M05 A2969 RMK A01 T02081053  RH  017%=      5-min Rain = 0
KCO1 220040Z 19013KT 21/M05 A2969 RMK A01 T02081050  RH  017%=      5-min Rain = 0
KCO1 220041Z 19012KT 21/M05 A2969 RMK A01 T02081048  RH  017%=      5-min Rain = 0
KCO1 220042Z 19014KT 21/M05 A2969 RMK A01 T02081048  RH  017%=      5-min Rain = 0
KCO1 220043Z 18012KT 21/M05 A2969 RMK A01 T02071047  RH  018%=      5-min Rain = 0
KCO1 220044Z 18012KT 21/M05 A2969 RMK A01 T02071047  RH  018%=      5-min Rain = 0
KCO1 220045Z 18014KT 21/M04 A2969 RMK A01 T02061044  RH  018%=      5-min Rain = 0
KCO1 220046Z 17013KT 21/M04 A2969 RMK A01 T02051042  RH  019%=      5-min Rain = 0
KCO1 220047Z 17013KT 20/M04 A2969 RMK A01 T02041039  RH  019%=      5-min Rain = 0
KCO1 220048Z 17013KT 20/M04 A2969 RMK A01 T02031037  RH  020%=      5-min Rain = 0
KCO1 220049Z 17014KT 20/M04 A2969 RMK A01 T02011036  RH  020%=      5-min Rain = 0
KCO1 220050Z 17014KT 20/M04 A2969 RMK A01 T02001035  RH  020%=      5-min Rain = 0
KCO1 220051Z 17012KT 20/M03 A2969 RMK A01 T01991034  RH  020%=      5-min Rain = 0
KCO1 220052Z 17013KT 20/M03 A2969 RMK A01 T01981033  RH  021%=      5-min Rain = 0
KCO1 220053Z 16013KT 20/M03 A2969 RMK A01 T01981033  RH  021%=      5-min Rain = 0
KCO1 220054Z 16015KT 20/M03 A2969 RMK A01 T01971032  RH  021%=      5-min Rain = 0
KCO1 220055Z 16015KT 20/M03 A2969 RMK A01 T01971032  RH  021%=      5-min Rain = 0
KCO1 220056Z 17018KT 20/M03 A2969 RMK A01 T01971032  RH  021%=      5-min Rain = 0
KCO1 220057Z 16013KT 20/M03 A297 RMK A01 T01971032  RH  021%=      5-min Rain = 0
KCO1 220058Z 16013KT 20/M03 A297 RMK A01 T01961032  RH  021%=      5-min Rain = 0
KCO1 220059Z 16013KT 20/M03 A297 RMK A01 T01951032  RH  021%=      5-min Rain = 0
KCO1 220100Z 17014KT 20/M03 A297 RMK A01 T01951032  RH  021%=      5-min Rain = 0
KCO1 220101Z 16014KT 19/M03 A297 RMK A01 T01941032  RH  021%=      5-min Rain = 0
KCO1 220102Z 16014KT 19/M03 A297 RMK A01 T01941031  RH  022%=      5-min Rain = 0
KCO1 220103Z 16013KT 19/M03 A297 RMK A01 T01941031  RH  022%=      5-min Rain = 0
KCO1 220104Z 16015KT 19/M03 A297 RMK A01 T01931031  RH  022%=      5-min Rain = 0
KCO1 220105Z 16016KT 19/M03 A297 RMK A01 T01931031  RH  022%=      5-min Rain = 0
KCO1 220106Z 16015KT 19/M03 A297 RMK A01 T01931031  RH  022%=      5-min Rain = 0
KCO1 220107Z 16015KT 19/M03 A297 RMK A01 T01931031  RH  022%=      5-min Rain = 0
KCO1 220108Z 16015KT 19/M03 A297 RMK A01 T01931030  RH  022%=      5-min Rain = 0
KCO1 220109Z 16013KT 19/M03 A297 RMK A01 T01931030  RH  022%=      5-min Rain = 0
KCO1 220110Z 16013KT 19/M03 A297 RMK A01 T01921030  RH  022%=      5-min Rain = 0
KCO1 220111Z 16013KT 19/M03 A297 RMK A01 T01921030  RH  022%=      5-min Rain = 0
KCO1 220112Z 15013KT 19/M03 A297 RMK A01 T01911030  RH  022%=      5-min Rain = 0
KCO1 220113Z 15013KT 19/M03 A297 RMK A01 T01911030  RH  022%=      5-min Rain = 0
KCO1 220114Z 15013KT 19/M03 A297 RMK A01 T01901031  RH  022%=      5-min Rain = 0
KCO1 220115Z 15013KT 19/M03 A297 RMK A01 T01881031  RH  022%=      5-min Rain = 0
KCO1 220116Z 15012KT 19/M03 A2971 RMK A01 T01871031  RH  023%=      5-min Rain = 0
KCO1 220117Z 16012KT 19/M03 A2971 RMK A01 T01871030  RH  023%=      5-min Rain = 0
KCO1 220118Z 16011KT 19/M03 A2971 RMK A01 T01861031  RH  023%=      5-min Rain = 0
KCO1 220119Z 15011KT 19/M03 A2971 RMK A01 T01861030  RH  023%=      5-min Rain = 0
KCO1 220120Z 15012KT 19/M03 A2971 RMK A01 T01851030  RH  023%=      5-min Rain = 0
KCO1 220121Z 15012KT 19/M03 A2971 RMK A01 T01851030  RH  023%=      5-min Rain = 0
KCO1 220122Z 15011KT 18/M03 A2971 RMK A01 T01841031  RH  023%=      5-min Rain = 0
KCO1 220123Z 16012KT 18/M03 A2971 RMK A01 T01831031  RH  023%=      5-min Rain = 0
KCO1 220124Z 15013KT 18/M03 A2971 RMK A01 T01821031  RH  023%=      5-min Rain = 0
KCO1 220125Z 15011KT 18/M03 A2971 RMK A01 T01821030  RH  023%=      5-min Rain = 0
KCO1 220126Z 15012KT 18/M03 A2971 RMK A01 T01811031  RH  023%=      5-min Rain = 0
KCO1 220127Z 14011KT 18/M03 A2971 RMK A01 T01811031  RH  024%=      5-min Rain = 0
KCO1 220128Z 14010KT 18/M03 A2971 RMK A01 T01811030  RH  024%=      5-min Rain = 0
KCO1 220129Z 14009KT 18/M03 A2971 RMK A01 T01811030  RH  024%=      5-min Rain = 0
KCO1 220130Z 13010KT 18/M03 A2971 RMK A01 T01801030  RH  024%=      5-min Rain = 0
KCO1 220131Z 13010KT 18/M03 A2971 RMK A01 T01781029  RH  024%=      5-min Rain = 0
KCO1 220132Z 13010KT 18/M03 A2971 RMK A01 T01761028  RH  025%=      5-min Rain = 0
KCO1 220133Z 14009KT 17/M03 A2971 RMK A01 T01741028  RH  025%=      5-min Rain = 0
KCO1 220134Z 14010KT 17/M03 A2971 RMK A01 T01731027  RH  025%=      5-min Rain = 0
KCO1 220135Z 14010KT 17/M03 A2971 RMK A01 T01711027  RH  026%=      5-min Rain = 0
KCO1 220136Z 14009KT 17/M03 A2971 RMK A01 T01701028  RH  026%=      5-min Rain = 0
KCO1 220137Z 14009KT 17/M03 A2971 RMK A01 T01691027  RH  026%=      5-min Rain = 0
KCO1 220138Z 14011KT 17/M03 A2971 RMK A01 T01681026  RH  026%=      5-min Rain = 0
KCO1 220139Z 13011KT 17/M02 A2971 RMK A01 T01681023  RH  027%=      5-min Rain = 0
KCO1 220140Z 13010KT 17/M02 A2971 RMK A01 T01671021  RH  028%=      5-min Rain = 0
KCO1 220141Z 12009KT 17/M02 A2971 RMK A01 T01661022  RH  028%=      5-min Rain = 0
KCO1 220142Z 12009KT 17/M02 A2971 RMK A01 T01651022  RH  028%=      5-min Rain = 0
KCO1 220143Z 12009KT 16/M02 A2972 RMK A01 T01631023  RH  028%=      5-min Rain = 0
KCO1 220144Z 12009KT 16/M02 A2972 RMK A01 T01621021  RH  028%=      5-min Rain = 0
KCO1 220145Z 12011KT 16/M02 A2972 RMK A01 T01601021  RH  029%=      5-min Rain = 0
KCO1 220146Z 11010KT 16/M02 A2972 RMK A01 T01591021  RH  029%=      5-min Rain = 0
KCO1 220147Z 11009KT 16/M02 A2972 RMK A01 T01581021  RH  029%=      5-min Rain = 0
KCO1 220148Z 11010KT 16/M02 A2972 RMK A01 T01571020  RH  029%=      5-min Rain = 0
KCO1 220149Z 11012KT 16/M02 A2972 RMK A01 T01561020  RH  030%=      5-min Rain = 0
KCO1 220150Z 11011KT 16/M02 A2972 RMK A01 T01561020  RH  030%=      5-min Rain = 0
KCO1 220151Z 11012KT 16/M02 A2972 RMK A01 T01551019  RH  030%=      5-min Rain = 0
KCO1 220152Z 11011KT 16/M02 A2972 RMK A01 T01551019  RH  030%=      5-min Rain = 0
KCO1 220153Z 12011KT 15/M02 A2972 RMK A01 T01541019  RH  030%=      5-min Rain = 0
KCO1 220154Z 12011KT 15/M02 A2972 RMK A01 T01541019  RH  031%=      5-min Rain = 0
KCO1 220155Z 12010KT 15/M02 A2972 RMK A01 T01531019  RH  031%=      5-min Rain = 0
KCO1 220156Z 12011KT 15/M02 A2972 RMK A01 T01521019  RH  031%=      5-min Rain = 0
KCO1 220157Z 12012KT 15/M02 A2972 RMK A01 T01521018  RH  031%=      5-min Rain = 0
KCO1 220158Z 13012G17KT 15/M02 A2972 RMK A01 T01521017  RH  031%=      5-min Rain = 0
KCO1 220159Z 13014KT 15/M02 A2972 RMK A01 T01521017  RH  031%=      5-min Rain = 0
KCO1 220200Z 13015KT 15/M02 A2972 RMK A01 T01531015  RH  031%=      5-min Rain = 0
KCO1 220201Z 13012KT 15/M02 A2972 RMK A01 T01531015  RH  031%=      5-min Rain = 0
KCO1 220202Z 13014KT 15/M02 A2973 RMK A01 T01531015  RH  032%=      5-min Rain = 0
KCO1 220203Z 13012KT 15/M01 A2973 RMK A01 T01531014  RH  032%=      5-min Rain = 0
KCO1 220204Z 13014KT 15/M01 A2973 RMK A01 T01531013  RH  032%=      5-min Rain = 0
KCO1 220205Z 13014KT 15/M01 A2973 RMK A01 T01521013  RH  032%=      5-min Rain = 0
KCO1 220206Z 13015KT 15/M01 A2973 RMK A01 T01521012  RH  032%=      5-min Rain = 0
KCO1 220207Z 13017KT 15/M01 A2973 RMK A01 T01521012  RH  032%=      5-min Rain = 0
KCO1 220208Z 13016KT 15/M01 A2973 RMK A01 T01521011  RH  033%=      5-min Rain = 0
KCO1 220209Z 13016KT 15/M01 A2973 RMK A01 T01511011  RH  033%=      5-min Rain = 0
KCO1 220210Z 13014KT 15/M01 A2973 RMK A01 T01511011  RH  033%=      5-min Rain = 0
KCO1 220211Z 13016G21KT 15/M01 A2973 RMK A01 T01501011  RH  033%=      5-min Rain = 0
KCO1 220212Z 13019KT 15/M01 A2973 RMK A01 T01501011  RH  033%=      5-min Rain = 0
KCO1 220213Z 13017KT 15/M01 A2973 RMK A01 T01491011  RH  033%=      5-min Rain = 0
KCO1 220214Z 13015G21KT 15/M01 A2973 RMK A01 T01491010  RH  033%=      5-min Rain = 0
KCO1 220215Z 13014KT 15/M01 A2973 RMK A01 T01491010  RH  034%=      5-min Rain = 0
KCO1 220216Z 13015KT 15/M01 A2973 RMK A01 T01481010  RH  034%=      5-min Rain = 0
KCO1 220217Z 13015KT 15/M01 A2973 RMK A01 T01471010  RH  034%=      5-min Rain = 0
KCO1 220218Z 13016KT 15/M01 A2973 RMK A01 T01471009  RH  034%=      5-min Rain = 0
KCO1 220219Z 13015KT 15/M01 A2973 RMK A01 T01471009  RH  034%=      5-min Rain = 0
KCO1 220220Z 14015KT 15/M01 A2973 RMK A01 T01471009  RH  034%=      5-min Rain = 0
KCO1 220221Z 14016KT 15/M01 A2974 RMK A01 T01461009  RH  034%=      5-min Rain = 0
KCO1 220222Z 14016KT 15/M01 A2974 RMK A01 T01461009  RH  034%=      5-min Rain = 0
KCO1 220223Z 14014KT 15/M01 A2973 RMK A01 T01451010  RH  035%=      5-min Rain = 0
KCO1 220224Z 14016KT 15/M01 A2973 RMK A01 T01451009  RH  035%=      5-min Rain = 0
KCO1 220225Z 14015KT 15/M01 A2974 RMK A01 T01451009  RH  035%=      5-min Rain = 0
KCO1 220226Z 14015KT 14/M01 A2973 RMK A01 T01441009  RH  035%=      5-min Rain = 0
KCO1 220227Z 14015KT 14/M01 A2974 RMK A01 T01441009  RH  035%=      5-min Rain = 0
KCO1 220228Z 14017KT 14/M01 A2973 RMK A01 T01431009  RH  035%=      5-min Rain = 0
KCO1 220229Z 13016KT 14/M01 A2974 RMK A01 T01441008  RH  035%=      5-min Rain = 0
KCO1 220230Z 13015KT 14/M01 A2974 RMK A01 T01431009  RH  035%=      5-min Rain = 0
KCO1 220231Z 13014KT 14/M01 A2974 RMK A01 T01431009  RH  035%=      5-min Rain = 0
KCO1 220232Z 13015KT 14/M01 A2974 RMK A01 T01421009  RH  035%=      5-min Rain = 0
KCO1 220233Z 13015G20KT 14/M01 A2974 RMK A01 T01421009  RH  035%=      5-min Rain = 0
KCO1 220234Z 13013G19KT 14/M01 A2974 RMK A01 T01411009  RH  036%=      5-min Rain = 0
KCO1 220235Z 13016G21KT 14/M01 A2974 RMK A01 T01411008  RH  036%=      5-min Rain = 0
KCO1 220236Z 12013KT 14/M01 A2974 RMK A01 T01411008  RH  036%=      5-min Rain = 0
KCO1 220237Z 12013G18KT 14/M01 A2974 RMK A01 T01411008  RH  036%=      5-min Rain = 0
KCO1 220238Z 12015G20KT 14/M01 A2974 RMK A01 T01401008  RH  036%=      5-min Rain = 0
KCO1 220239Z 12013KT 14/M01 A2974 RMK A01 T01401008  RH  036%=      5-min Rain = 0
KCO1 220240Z 12014KT 14/M01 A2974 RMK A01 T01391008  RH  036%=      5-min Rain = 0
KCO1 220241Z 12015KT 14/M01 A2974 RMK A01 T01391008  RH  036%=      5-min Rain = 0
KCO1 220242Z 13014KT 14/M01 A2974 RMK A01 T01391007  RH  037%=      5-min Rain = 0
KCO1 220243Z 13017G22KT 14/M01 A2974 RMK A01 T01381007  RH  037%=      5-min Rain = 0
KCO1 220244Z 13017KT 14/M01 A2974 RMK A01 T01381006  RH  037%=      5-min Rain = 0
KCO1 220245Z 13015G20KT 14/M01 A2974 RMK A01 T01391006  RH  037%=      5-min Rain = 0
KCO1 220246Z 13013KT 14/M01 A2974 RMK A01 T01381005  RH  037%=      5-min Rain = 0
KCO1 220247Z 13014KT 14/M01 A2974 RMK A01 T01371005  RH  037%=      5-min Rain = 0
KCO1 220248Z 13015KT 14/M01 A2975 RMK A01 T01371005  RH  038%=      5-min Rain = 0
KCO1 220249Z 13016KT 14/M01 A2974 RMK A01 T01361005  RH  038%=      5-min Rain = 0
KCO1 220250Z 14018KT 14/M00 A2974 RMK A01 T01371004  RH  038%=      5-min Rain = 0
KCO1 220251Z 13016KT 14/M00 A2975 RMK A01 T01371003  RH  038%=      5-min Rain = 0
KCO1 220252Z 13015KT 14/M00 A2975 RMK A01 T01371003  RH  038%=      5-min Rain = 0
KCO1 220253Z 13016G22KT 14/M00 A2974 RMK A01 T01371003  RH  038%=      5-min Rain = 0
KCO1 220254Z 13015G21KT 14/M00 A2974 RMK A01 T01371002  RH  038%=      5-min Rain = 0
KCO1 220255Z 13017KT 14/M00 A2975 RMK A01 T01371002  RH  038%=      5-min Rain = 0
KCO1 220256Z 13015KT 14/M00 A2975 RMK A01 T01371001  RH  039%=      5-min Rain = 0
KCO1 220257Z 13015G20KT 14/M00 A2975 RMK A01 T01361001  RH  039%=      5-min Rain = 0
KCO1 220258Z 13014KT 14/M00 A2975 RMK A01 T01361001  RH  039%=      5-min Rain = 0
KCO1 220259Z 13016KT 14/M00 A2975 RMK A01 T01361001  RH  039%=      5-min Rain = 0
KCO1 220300Z 13014KT 14/00 A2975 RMK A01 T013500-0  RH  039%=      5-min Rain = 0
KCO1 220301Z 13018G23KT 14/00 A2975 RMK A01 T013500-0  RH  039%=      5-min Rain = 0
KCO1 220302Z 13016KT 14/00 A2975 RMK A01 T01350001  RH  040%=      5-min Rain = 0
KCO1 220303Z 13017KT 14/00 A2975 RMK A01 T01360001  RH  040%=      5-min Rain = 0
KCO1 220304Z 13016KT 14/00 A2975 RMK A01 T01360002  RH  040%=      5-min Rain = 0
KCO1 220305Z 13016KT 14/00 A2975 RMK A01 T01350002  RH  040%=      5-min Rain = 0
KCO1 220306Z 13016KT 14/00 A2975 RMK A01 T01350002  RH  040%=      5-min Rain = 0
KCO1 220307Z 13016KT 14/00 A2975 RMK A01 T01350002  RH  040%=      5-min Rain = 0
KCO1 220308Z 13016G21KT 13/00 A2975 RMK A01 T01340003  RH  041%=      5-min Rain = 0
KCO1 220309Z 13015KT 13/00 A2975 RMK A01 T01340004  RH  041%=      5-min Rain = 0
KCO1 220310Z 13015KT 13/00 A2975 RMK A01 T01340004  RH  041%=      5-min Rain = 0
KCO1 220311Z 13018G24KT 13/00 A2975 RMK A01 T01330004  RH  041%=      5-min Rain = 0
KCO1 220312Z 14018KT 13/01 A2975 RMK A01 T01330006  RH  042%=      5-min Rain = 0
KCO1 220313Z 13015KT 13/01 A2975 RMK A01 T01340006  RH  042%=      5-min Rain = 0
KCO1 220314Z 13017G23KT 13/01 A2975 RMK A01 T01340006  RH  042%=      5-min Rain = 0
KCO1 220315Z 14020KT 13/01 A2975 RMK A01 T01340007  RH  042%=      5-min Rain = 0
KCO1 220316Z 13014KT 13/01 A2975 RMK A01 T01340008  RH  042%=      5-min Rain = 0
KCO1 220317Z 14016KT 13/01 A2975 RMK A01 T01340007  RH  042%=      5-min Rain = 0
KCO1 220318Z 14019KT 13/01 A2975 RMK A01 T01330008  RH  043%=      5-min Rain = 0
KCO1 220319Z 13017KT 13/01 A2975 RMK A01 T01330009  RH  043%=      5-min Rain = 0
KCO1 220320Z 14017G23KT 13/01 A2975 RMK A01 T01330010  RH  043%=      5-min Rain = 0
KCO1 220321Z 14016G23KT 13/01 A2975 RMK A01 T01330011  RH  043%=      5-min Rain = 0
KCO1 220322Z 14014G21KT 13/01 A2975 RMK A01 T01330011  RH  043%=      5-min Rain = 0
KCO1 220323Z 14017KT 13/01 A2975 RMK A01 T01320011  RH  044%=      5-min Rain = 0
KCO1 220324Z 14016G21KT 13/01 A2975 RMK A01 T01320012  RH  044%=      5-min Rain = 0
KCO1 220325Z 13016G21KT 13/01 A2975 RMK A01 T01320013  RH  044%=      5-min Rain = 0
KCO1 220326Z 14016KT 13/01 A2975 RMK A01 T01320014  RH  045%=      5-min Rain = 0
KCO1 220327Z 14016KT 13/01 A2975 RMK A01 T01310014  RH  045%=      5-min Rain = 0
KCO1 220328Z 14019KT 13/02 A2975 RMK A01 T01310015  RH  045%=      5-min Rain = 0
KCO1 220329Z 14014KT 13/02 A2975 RMK A01 T01310015  RH  045%=      5-min Rain = 0
KCO1 220330Z 14014G19KT 13/02 A2975 RMK A01 T01310015  RH  045%=      5-min Rain = 0
KCO1 220331Z 14015KT 13/02 A2975 RMK A01 T01310016  RH  046%=      5-min Rain = 0
KCO1 220332Z 14017G22KT 13/02 A2975 RMK A01 T01300016  RH  046%=      5-min Rain = 0
KCO1 220333Z 14017G24KT 13/02 A2975 RMK A01 T01300017  RH  046%=      5-min Rain = 0
KCO1 220334Z 14016KT 13/02 A2975 RMK A01 T01310017  RH  046%=      5-min Rain = 0
KCO1 220335Z 14018G23KT 13/02 A2975 RMK A01 T01300018  RH  046%=      5-min Rain = 0
KCO1 220336Z 14016KT 13/02 A2975 RMK A01 T01300018  RH  046%=      5-min Rain = 0
KCO1 220337Z 14019KT 13/02 A2975 RMK A01 T01310019  RH  046%=      5-min Rain = 0
KCO1 220338Z 14017G23KT 13/02 A2975 RMK A01 T01310019  RH  047%=      5-min Rain = 0
KCO1 220339Z 15020G26KT 13/02 A2975 RMK A01 T01310019  RH  047%=      5-min Rain = 0
KCO1 220340Z 14017KT 13/02 A2975 RMK A01 T01320020  RH  047%=      5-min Rain = 0
KCO1 220341Z 15019G24KT 13/02 A2975 RMK A01 T01320020  RH  047%=      5-min Rain = 0
KCO1 220342Z 14017G22KT 13/02 A2975 RMK A01 T01320021  RH  047%=      5-min Rain = 0
KCO1 220343Z 14016KT 13/02 A2975 RMK A01 T01310020  RH  047%=      5-min Rain = 0
KCO1 220344Z 14020KT 13/02 A2975 RMK A01 T01310020  RH  047%=      5-min Rain = 0
KCO1 220345Z 14020G26KT 13/02 A2975 RMK A01 T01310021  RH  047%=      5-min Rain = 0
KCO1 220346Z 15022KT 13/02 A2975 RMK A01 T01310021  RH  047%=      5-min Rain = 0
KCO1 220347Z 15016KT 13/02 A2975 RMK A01 T01310021  RH  047%=      5-min Rain = 0
KCO1 220348Z 15018KT 13/02 A2975 RMK A01 T01310021  RH  047%=      5-min Rain = 0
KCO1 220349Z 15018KT 13/02 A2975 RMK A01 T01300021  RH  048%=      5-min Rain = 0
KCO1 220350Z 15020KT 13/02 A2975 RMK A01 T01300021  RH  048%=      5-min Rain = 0
KCO1 220351Z 15019KT 13/02 A2975 RMK A01 T01300022  RH  048%=      5-min Rain = 0
KCO1 220352Z 15023KT 13/02 A2975 RMK A01 T01300022  RH  048%=      5-min Rain = 0
KCO1 220353Z 15021G26KT 13/02 A2975 RMK A01 T01300023  RH  048%=      5-min Rain = 0
KCO1 220354Z 15019G26KT 13/02 A2975 RMK A01 T01300023  RH  048%=      5-min Rain = 0
KCO1 220355Z 15021KT 13/02 A2975 RMK A01 T01300023  RH  048%=      5-min Rain = 0
KCO1 220356Z 15018G23KT 13/02 A2975 RMK A01 T01300023  RH  048%=      5-min Rain = 0
KCO1 220357Z 15019G25KT 13/02 A2975 RMK A01 T01300024  RH  048%=      5-min Rain = 0
KCO1 220358Z 15020KT 13/02 A2975 RMK A01 T01290024  RH  049%=      5-min Rain = 0
KCO1 220359Z 15022G28KT 13/02 A2975 RMK A01 T01290024  RH  049%=      5-min Rain = 0
KCO1 220400Z 15021G27KT 13/02 A2975 RMK A01 T01290024  RH  049%=      5-min Rain = 0
KCO1 220401Z 15020G26KT 13/02 A2975 RMK A01 T01290024  RH  049%=      5-min Rain = 0
KCO1 220402Z 15020KT 13/03 A2975 RMK A01 T01290025  RH  049%=      5-min Rain = 0
KCO1 220403Z 15021KT 13/03 A2975 RMK A01 T01290025  RH  049%=      5-min Rain = 0
KCO1 220404Z 15022G27KT 13/03 A2975 RMK A01 T01290025  RH  049%=      5-min Rain = 0
KCO1 220405Z 15021KT 13/03 A2976 RMK A01 T01290025  RH  049%=      5-min Rain = 0
KCO1 220406Z 15018G24KT 13/03 A2976 RMK A01 T01290025  RH  049%=      5-min Rain = 0
KCO1 220407Z 15020KT 13/03 A2976 RMK A01 T01290025  RH  049%=      5-min Rain = 0
KCO1 220408Z 15020G26KT 13/03 A2976 RMK A01 T01280026  RH  050%=      5-min Rain = 0
KCO1 220409Z 15019G25KT 13/03 A2976 RMK A01 T01280026  RH  050%=      5-min Rain = 0
KCO1 220410Z 15019KT 13/03 A2976 RMK A01 T01280026  RH  050%=      5-min Rain = 0
KCO1 220411Z 15019KT 13/03 A2976 RMK A01 T01280026  RH  050%=      5-min Rain = 0
KCO1 220412Z 15018G23KT 13/03 A2976 RMK A01 T01280026  RH  050%=      5-min Rain = 0
KCO1 220413Z 15017KT 13/03 A2976 RMK A01 T01280026  RH  050%=      5-min Rain = 0
KCO1 220414Z 15018KT 13/03 A2976 RMK A01 T01270026  RH  050%=      5-min Rain = 0
KCO1 220415Z 15019G24KT 13/03 A2976 RMK A01 T01260026  RH  050%=      5-min Rain = 0
KCO1 220416Z 15022KT 13/03 A2976 RMK A01 T01260026  RH  050%=      5-min Rain = 0
KCO1 220417Z 15018KT 13/03 A2976 RMK A01 T01270026  RH  050%=      5-min Rain = 0
KCO1 220418Z 15018KT 13/03 A2976 RMK A01 T01270026  RH  050%=      5-min Rain = 0
KCO1 220419Z 15017KT 13/03 A2976 RMK A01 T01260026  RH  050%=      5-min Rain = 0
KCO1 220420Z 15019G24KT 13/03 A2976 RMK A01 T01260026  RH  051%=      5-min Rain = 0
KCO1 220421Z 15018KT 13/03 A2976 RMK A01 T01260026  RH  051%=      5-min Rain = 0
KCO1 220422Z 15019G25KT 13/03 A2976 RMK A01 T01260026  RH  051%=      5-min Rain = 0
KCO1 220423Z 15015KT 13/03 A2976 RMK A01 T01260026  RH  051%=      5-min Rain = 0
KCO1 220424Z 15015G22KT 13/03 A2976 RMK A01 T01250026  RH  051%=      5-min Rain = 0
KCO1 220425Z 15019KT 12/03 A2976 RMK A01 T01240026  RH  051%=      5-min Rain = 0
KCO1 220426Z 15021KT 12/03 A2976 RMK A01 T01240026  RH  051%=      5-min Rain = 0
KCO1 220427Z 15018G23KT 13/03 A2976 RMK A01 T01250026  RH  051%=      5-min Rain = 0
KCO1 220428Z 15019KT 13/03 A2976 RMK A01 T01250026  RH  051%=      5-min Rain = 0
KCO1 220429Z 15020G25KT 13/03 A2976 RMK A01 T01250026  RH  051%=      5-min Rain = 0
KCO1 220430Z 15018G23KT 12/03 A2976 RMK A01 T01240026  RH  051%=      5-min Rain = 0
KCO1 220431Z 15020KT 13/03 A2976 RMK A01 T01250026  RH  051%=      5-min Rain = 0
KCO1 220432Z 15020KT 12/03 A2976 RMK A01 T01240026  RH  051%=      5-min Rain = 0
KCO1 220433Z 15020KT 12/03 A2976 RMK A01 T01240026  RH  051%=      5-min Rain = 0
KCO1 220434Z 15019G27KT 12/03 A2976 RMK A01 T01240026  RH  051%=      5-min Rain = 0
KCO1 220435Z 15018G24KT 12/03 A2976 RMK A01 T01240027  RH  051%=      5-min Rain = 0
KCO1 220436Z 16018KT 12/03 A2976 RMK A01 T01240027  RH  051%=      5-min Rain = 0
KCO1 220437Z 15018G24KT 12/03 A2976 RMK A01 T01240026  RH  051%=      5-min Rain = 0
KCO1 220438Z 15021G26KT 12/03 A2976 RMK A01 T01230026  RH  051%=      5-min Rain = 0
KCO1 220439Z 16019KT 12/03 A2976 RMK A01 T01230026  RH  051%=      5-min Rain = 0
KCO1 220440Z 15017KT 12/03 A2976 RMK A01 T01240026  RH  051%=      5-min Rain = 0
KCO1 220441Z 15017G23KT 12/03 A2976 RMK A01 T01240026  RH  051%=      5-min Rain = 0
KCO1 220442Z 15022G27KT 12/03 A2976 RMK A01 T01230026  RH  051%=      5-min Rain = 0
KCO1 220443Z 16020KT 12/03 A2976 RMK A01 T01230026  RH  052%=      5-min Rain = 0
KCO1 220444Z 15017KT 12/03 A2976 RMK A01 T01230026  RH  051%=      5-min Rain = 0
KCO1 220445Z 15021G27KT 12/03 A2976 RMK A01 T01230026  RH  052%=      5-min Rain = 0
KCO1 220446Z 16020KT 12/03 A2976 RMK A01 T01230026  RH  052%=      5-min Rain = 0
KCO1 220447Z 16020KT 12/03 A2976 RMK A01 T01230026  RH  052%=      5-min Rain = 0
KCO1 220448Z 15017G27KT 12/03 A2976 RMK A01 T01230026  RH  052%=      5-min Rain = 0
KCO1 220449Z 15021KT 12/03 A2976 RMK A01 T01220026  RH  052%=      5-min Rain = 0
KCO1 220450Z 15022KT 12/03 A2976 RMK A01 T01230026  RH  052%=      5-min Rain = 0
KCO1 220451Z 15021G28KT 12/03 A2976 RMK A01 T01230026  RH  052%=      5-min Rain = 0
KCO1 220452Z 15019G24KT 12/03 A2976 RMK A01 T01230026  RH  052%=      5-min Rain = 0
KCO1 220453Z 15021G27KT 12/03 A2976 RMK A01 T01230027  RH  052%=      5-min Rain = 0
KCO1 220454Z 15021G26KT 12/03 A2976 RMK A01 T01230027  RH  052%=      5-min Rain = 0
KCO1 220455Z 15022KT 12/03 A2976 RMK A01 T01220027  RH  052%=      5-min Rain = 0
KCO1 220456Z 15020G28KT 12/03 A2976 RMK A01 T01220026  RH  052%=      5-min Rain = 0
KCO1 220457Z 15024G29KT 12/03 A2976 RMK A01 T01220026  RH  052%=      5-min Rain = 0
KCO1 220458Z 15021G28KT 12/03 A2976 RMK A01 T01220026  RH  052%=      5-min Rain = 0
KCO1 220459Z 15023G28KT 12/03 A2976 RMK A01 T01220026  RH  052%=      5-min Rain = 0
KCO1 220500Z 15020KT 12/03 A2976 RMK A01 T01220027  RH  052%=      5-min Rain = 0
KCO1 220501Z 16018KT 12/03 A2976 RMK A01 T01210026  RH  052%=      5-min Rain = 0
KCO1 220502Z 15023KT 12/03 A2976 RMK A01 T01210026  RH  052%=      5-min Rain = 0
KCO1 220503Z 15024KT 12/03 A2976 RMK A01 T01210026  RH  053%=      5-min Rain = 0
KCO1 220504Z 15021KT 12/03 A2976 RMK A01 T01210027  RH  052%=      5-min Rain = 0
KCO1 220505Z 15020G25KT 12/03 A2976 RMK A01 T01210026  RH  052%=      5-min Rain = 0
KCO1 220506Z 15018G24KT 12/03 A2977 RMK A01 T01200026  RH  052%=      5-min Rain = 0
KCO1 220507Z 15019KT 12/03 A2977 RMK A01 T01200026  RH  053%=      5-min Rain = 0
KCO1 220508Z 16020G26KT 12/03 A2977 RMK A01 T01200026  RH  053%=      5-min Rain = 0
KCO1 220509Z 15022KT 12/03 A2976 RMK A01 T01190026  RH  053%=      5-min Rain = 0
KCO1 220510Z 15022G27KT 12/03 A2976 RMK A01 T01190026  RH  053%=      5-min Rain = 0
KCO1 220511Z 15021G26KT 12/03 A2977 RMK A01 T01190026  RH  053%=      5-min Rain = 0
KCO1 220512Z 15020KT 12/03 A2977 RMK A01 T01190026  RH  053%=      5-min Rain = 0
KCO1 220513Z 15021KT 12/03 A2977 RMK A01 T01190026  RH  053%=      5-min Rain = 0
KCO1 220514Z 15023G30KT 12/03 A2976 RMK A01 T01180026  RH  053%=      5-min Rain = 0
KCO1 220515Z 16021G28KT 12/03 A2977 RMK A01 T01190026  RH  053%=      5-min Rain = 0
KCO1 220516Z 15023KT 12/03 A2977 RMK A01 T01190026  RH  053%=      5-min Rain = 0
KCO1 220517Z 16022KT 12/03 A2977 RMK A01 T01190026  RH  053%=      5-min Rain = 0
KCO1 220518Z 16019G25KT 12/03 A2977 RMK A01 T01190026  RH  053%=      5-min Rain = 0
KCO1 220519Z 15020G25KT 12/03 A2977 RMK A01 T01180026  RH  053%=      5-min Rain = 0
KCO1 220520Z 15019G24KT 12/03 A2977 RMK A01 T01180026  RH  053%=      5-min Rain = 0
KCO1 220521Z 15022KT 12/03 A2977 RMK A01 T01180026  RH  053%=      5-min Rain = 0
KCO1 220522Z 16019G24KT 12/03 A2977 RMK A01 T01180026  RH  053%=      5-min Rain = 0
KCO1 220523Z 16020G26KT 12/03 A2977 RMK A01 T01180026  RH  053%=      5-min Rain = 0
KCO1 220524Z 16018KT 12/03 A2977 RMK A01 T01170026  RH  053%=      5-min Rain = 0
KCO1 220525Z 15020G26KT 12/03 A2977 RMK A01 T01170026  RH  054%=      5-min Rain = 0
KCO1 220526Z 16018KT 12/03 A2977 RMK A01 T01170026  RH  054%=      5-min Rain = 0
KCO1 220527Z 15019G25KT 12/03 A2977 RMK A01 T01170026  RH  054%=      5-min Rain = 0
KCO1 220528Z 15018G23KT 12/03 A2977 RMK A01 T01170026  RH  054%=      5-min Rain = 0
KCO1 220529Z 15017G23KT 12/03 A2977 RMK A01 T01160026  RH  054%=      5-min Rain = 0
KCO1 220530Z 15020G27KT 12/03 A2977 RMK A01 T01160026  RH  054%=      5-min Rain = 0
KCO1 220531Z 15019KT 12/03 A2977 RMK A01 T01160027  RH  054%=      5-min Rain = 0
KCO1 220532Z 15021G26KT 12/03 A2977 RMK A01 T01160026  RH  054%=      5-min Rain = 0
KCO1 220533Z 15019G24KT 12/03 A2977 RMK A01 T01160026  RH  054%=      5-min Rain = 0
KCO1 220534Z 15021KT 12/03 A2977 RMK A01 T01160026  RH  054%=      5-min Rain = 0
KCO1 220535Z 16017KT 12/03 A2977 RMK A01 T01160026  RH  054%=      5-min Rain = 0
KCO1 220536Z 15020G25KT 12/03 A2977 RMK A01 T01160026  RH  054%=      5-min Rain = 0
KCO1 220537Z 16020G25KT 12/03 A2977 RMK A01 T01160026  RH  054%=      5-min Rain = 0
KCO1 220538Z 15021G27KT 12/03 A2977 RMK A01 T01160026  RH  054%=      5-min Rain = 0
KCO1 220539Z 15021KT 12/03 A2977 RMK A01 T01150026  RH  054%=      5-min Rain = 0
KCO1 220540Z 15020G26KT 12/03 A2977 RMK A01 T01150026  RH  054%=      5-min Rain = 0
KCO1 220541Z 15021G27KT 12/03 A2977 RMK A01 T01160026  RH  054%=      5-min Rain = 0
KCO1 220542Z 15018G23KT 12/03 A2977 RMK A01 T01150026  RH  054%=      5-min Rain = 0
KCO1 220543Z 15019G25KT 12/03 A2977 RMK A01 T01160026  RH  054%=      5-min Rain = 0
KCO1 220544Z 15020G27KT 12/03 A2977 RMK A01 T01150026  RH  054%=      5-min Rain = 0
KCO1 220545Z 15019G24KT 12/03 A2977 RMK A01 T01150026  RH  054%=      5-min Rain = 0
KCO1 220546Z 15018KT 12/03 A2977 RMK A01 T01150026  RH  054%=      5-min Rain = 0
KCO1 220547Z 15020G26KT 12/03 A2978 RMK A01 T01150026  RH  054%=      5-min Rain = 0
KCO1 220548Z 15020KT 12/03 A2978 RMK A01 T01150026  RH  054%=      5-min Rain = 0
KCO1 220549Z 15020KT 12/03 A2978 RMK A01 T01150026  RH  054%=      5-min Rain = 0
KCO1 220550Z 15020KT 12/03 A2978 RMK A01 T01150026  RH  054%=      5-min Rain = 0
KCO1 220551Z 15019G24KT 12/03 A2978 RMK A01 T01150026  RH  054%=      5-min Rain = 0
KCO1 220552Z 15021G27KT 12/03 A2978 RMK A01 T01150026  RH  054%=      5-min Rain = 0
KCO1 220553Z 15018KT 12/03 A2978 RMK A01 T01150026  RH  054%=      5-min Rain = 0
KCO1 220554Z 15023KT 12/03 A2978 RMK A01 T01150026  RH  054%=      5-min Rain = 0
KCO1 220555Z 15019G24KT 12/03 A2978 RMK A01 T01150026  RH  054%=      5-min Rain = 0
KCO1 220556Z 15022G27KT 12/03 A2978 RMK A01 T01150025  RH  054%=      5-min Rain = 0
KCO1 220557Z 15019G24KT 12/03 A2978 RMK A01 T01150025  RH  054%=      5-min Rain = 0
KCO1 220558Z 15020G25KT 12/03 A2978 RMK A01 T01150025  RH  054%=      5-min Rain = 0
KCO1 220559Z 15020KT 12/03 A2978 RMK A01 T01150025  RH  054%=      5-min Rain = 0

Page generated in 0.1438 seconds.